<?xml version="1.0" encoding="UTF-8" standalone="no" ?>
<gpx xmlns="http://www.topografix.com/GPX/1/1" xmlns:xsi="http://www.w3.org/2001/XMLSchema-instance" xsi:schemaLocation="http://www.topografix.com/GPX/1/1 http://www.topografix.com/GPX/1/1/gpx.xsd" version="1.1" creator="VisuGPX - https://www.visugpx.com">
  <metadata>
    <name>CURRENT TRACK- 27 JUIL CANADEL</name>
  </metadata>
  <trk>
    <name><![CDATA[CURRENT TRACK- 27 JUIL CANADEL]]></name>
    <extensions>
      <line xmlns="http://www.topografix.com/GPX/gpx_style/0/2">
        <color>0000FF</color>
        <width>4</width>
      </line>
    </extensions>
    <trkseg>
      <trkpt lat="43.28175" lon="6.58728">
        <ele>2.42375</ele>
        <time>2019-07-26T17:13:49Z</time>
      </trkpt>
      <trkpt lat="43.28176" lon="6.58725">
        <ele>2.48125</ele>
        <time>2019-07-26T17:14:05Z</time>
      </trkpt>
      <trkpt lat="43.28174" lon="6.58716">
        <ele>2.525</ele>
        <time>2019-07-26T17:14:51Z</time>
      </trkpt>
      <trkpt lat="43.28177" lon="6.58729">
        <ele>2.47125</ele>
        <time>2019-07-26T17:23:30Z</time>
      </trkpt>
      <trkpt lat="43.28177" lon="6.58729">
        <ele>2.4875</ele>
        <time>2019-07-26T17:23:55Z</time>
      </trkpt>
      <trkpt lat="43.28168" lon="6.58738">
        <ele>1.958087</ele>
        <time>2019-07-27T06:32:31Z</time>
      </trkpt>
      <trkpt lat="43.28187" lon="6.58738">
        <ele>2.782222</ele>
        <time>2019-07-27T06:38:27Z</time>
      </trkpt>
      <trkpt lat="43.28183" lon="6.58679">
        <ele>3.48</ele>
        <time>2019-07-27T06:38:53Z</time>
      </trkpt>
      <trkpt lat="43.28194" lon="6.58619">
        <ele>5.295588</ele>
        <time>2019-07-27T06:39:15Z</time>
      </trkpt>
      <trkpt lat="43.28195" lon="6.58559">
        <ele>5.45</ele>
        <time>2019-07-27T06:39:35Z</time>
      </trkpt>
      <trkpt lat="43.28178" lon="6.58498">
        <ele>5.84125</ele>
        <time>2019-07-27T06:39:49Z</time>
      </trkpt>
      <trkpt lat="43.28158" lon="6.58431">
        <ele>5.515</ele>
        <time>2019-07-27T06:40:04Z</time>
      </trkpt>
      <trkpt lat="43.2814" lon="6.58371">
        <ele>5.08</ele>
        <time>2019-07-27T06:40:17Z</time>
      </trkpt>
      <trkpt lat="43.28126" lon="6.58303">
        <ele>5.642875</ele>
        <time>2019-07-27T06:40:31Z</time>
      </trkpt>
      <trkpt lat="43.28108" lon="6.58239">
        <ele>5.235</ele>
        <time>2019-07-27T06:40:45Z</time>
      </trkpt>
      <trkpt lat="43.28093" lon="6.58177">
        <ele>4.991225</ele>
        <time>2019-07-27T06:41:00Z</time>
      </trkpt>
      <trkpt lat="43.28078" lon="6.58113">
        <ele>5.448263</ele>
        <time>2019-07-27T06:41:15Z</time>
      </trkpt>
      <trkpt lat="43.28061" lon="6.58052">
        <ele>5.929493</ele>
        <time>2019-07-27T06:41:28Z</time>
      </trkpt>
      <trkpt lat="43.2804" lon="6.57989">
        <ele>6.91625</ele>
        <time>2019-07-27T06:41:39Z</time>
      </trkpt>
      <trkpt lat="43.28018" lon="6.57932">
        <ele>7.024638</ele>
        <time>2019-07-27T06:41:48Z</time>
      </trkpt>
      <trkpt lat="43.27991" lon="6.57877">
        <ele>7.8948</ele>
        <time>2019-07-27T06:41:59Z</time>
      </trkpt>
      <trkpt lat="43.27962" lon="6.57828">
        <ele>8.165763</ele>
        <time>2019-07-27T06:42:11Z</time>
      </trkpt>
      <trkpt lat="43.2794" lon="6.57765">
        <ele>8.943375</ele>
        <time>2019-07-27T06:42:28Z</time>
      </trkpt>
      <trkpt lat="43.27906" lon="6.577">
        <ele>8.673141</ele>
        <time>2019-07-27T06:42:41Z</time>
      </trkpt>
      <trkpt lat="43.27874" lon="6.57654">
        <ele>8</ele>
        <time>2019-07-27T06:42:55Z</time>
      </trkpt>
      <trkpt lat="43.27836" lon="6.57616">
        <ele>7.7518</ele>
        <time>2019-07-27T06:43:07Z</time>
      </trkpt>
      <trkpt lat="43.27789" lon="6.57594">
        <ele>6.984306</ele>
        <time>2019-07-27T06:43:18Z</time>
      </trkpt>
      <trkpt lat="43.27745" lon="6.57577">
        <ele>6.74875</ele>
        <time>2019-07-27T06:43:29Z</time>
      </trkpt>
      <trkpt lat="43.27698" lon="6.57557">
        <ele>6.48</ele>
        <time>2019-07-27T06:43:41Z</time>
      </trkpt>
      <trkpt lat="43.27652" lon="6.5754">
        <ele>6.126253</ele>
        <time>2019-07-27T06:43:53Z</time>
      </trkpt>
      <trkpt lat="43.27606" lon="6.57522">
        <ele>5.469306</ele>
        <time>2019-07-27T06:44:06Z</time>
      </trkpt>
      <trkpt lat="43.2756" lon="6.57509">
        <ele>4.85625</ele>
        <time>2019-07-27T06:44:20Z</time>
      </trkpt>
      <trkpt lat="43.2751" lon="6.5749">
        <ele>4.191034</ele>
        <time>2019-07-27T06:44:32Z</time>
      </trkpt>
      <trkpt lat="43.27464" lon="6.5748">
        <ele>3.634431</ele>
        <time>2019-07-27T06:44:46Z</time>
      </trkpt>
      <trkpt lat="43.27417" lon="6.57486">
        <ele>3.080194</ele>
        <time>2019-07-27T06:45:03Z</time>
      </trkpt>
      <trkpt lat="43.27381" lon="6.5745">
        <ele>3</ele>
        <time>2019-07-27T06:45:17Z</time>
      </trkpt>
      <trkpt lat="43.27332" lon="6.57432">
        <ele>3.7536</ele>
        <time>2019-07-27T06:45:33Z</time>
      </trkpt>
      <trkpt lat="43.27288" lon="6.57413">
        <ele>4</ele>
        <time>2019-07-27T06:45:47Z</time>
      </trkpt>
      <trkpt lat="43.27243" lon="6.5739">
        <ele>4</ele>
        <time>2019-07-27T06:46:01Z</time>
      </trkpt>
      <trkpt lat="43.27199" lon="6.57372">
        <ele>4</ele>
        <time>2019-07-27T06:46:14Z</time>
      </trkpt>
      <trkpt lat="43.27154" lon="6.57355">
        <ele>4</ele>
        <time>2019-07-27T06:46:27Z</time>
      </trkpt>
      <trkpt lat="43.27109" lon="6.57337">
        <ele>4</ele>
        <time>2019-07-27T06:46:41Z</time>
      </trkpt>
      <trkpt lat="43.2706" lon="6.57325">
        <ele>4</ele>
        <time>2019-07-27T06:46:55Z</time>
      </trkpt>
      <trkpt lat="43.27012" lon="6.57335">
        <ele>4</ele>
        <time>2019-07-27T06:47:11Z</time>
      </trkpt>
      <trkpt lat="43.26963" lon="6.57356">
        <ele>4</ele>
        <time>2019-07-27T06:47:25Z</time>
      </trkpt>
      <trkpt lat="43.26915" lon="6.57374">
        <ele>4</ele>
        <time>2019-07-27T06:47:39Z</time>
      </trkpt>
      <trkpt lat="43.26868" lon="6.57393">
        <ele>4</ele>
        <time>2019-07-27T06:47:55Z</time>
      </trkpt>
      <trkpt lat="43.26825" lon="6.57411">
        <ele>4</ele>
        <time>2019-07-27T06:48:11Z</time>
      </trkpt>
      <trkpt lat="43.26779" lon="6.57425">
        <ele>4</ele>
        <time>2019-07-27T06:48:27Z</time>
      </trkpt>
      <trkpt lat="43.26736" lon="6.57443">
        <ele>4</ele>
        <time>2019-07-27T06:48:42Z</time>
      </trkpt>
      <trkpt lat="43.26693" lon="6.57461">
        <ele>4.8975</ele>
        <time>2019-07-27T06:48:57Z</time>
      </trkpt>
      <trkpt lat="43.26653" lon="6.57492">
        <ele>5</ele>
        <time>2019-07-27T06:49:12Z</time>
      </trkpt>
      <trkpt lat="43.26619" lon="6.5754">
        <ele>5</ele>
        <time>2019-07-27T06:49:25Z</time>
      </trkpt>
      <trkpt lat="43.26586" lon="6.57586">
        <ele>5.1525</ele>
        <time>2019-07-27T06:49:37Z</time>
      </trkpt>
      <trkpt lat="43.26553" lon="6.5763">
        <ele>5.8525</ele>
        <time>2019-07-27T06:49:50Z</time>
      </trkpt>
      <trkpt lat="43.26528" lon="6.57687">
        <ele>6</ele>
        <time>2019-07-27T06:50:03Z</time>
      </trkpt>
      <trkpt lat="43.26494" lon="6.57726">
        <ele>6</ele>
        <time>2019-07-27T06:50:16Z</time>
      </trkpt>
      <trkpt lat="43.26498" lon="6.57785">
        <ele>6</ele>
        <time>2019-07-27T06:50:26Z</time>
      </trkpt>
      <trkpt lat="43.26491" lon="6.57851">
        <ele>6</ele>
        <time>2019-07-27T06:50:40Z</time>
      </trkpt>
      <trkpt lat="43.26477" lon="6.57918">
        <ele>5.420194</ele>
        <time>2019-07-27T06:50:53Z</time>
      </trkpt>
      <trkpt lat="43.26465" lon="6.57982">
        <ele>5.070181</ele>
        <time>2019-07-27T06:51:06Z</time>
      </trkpt>
      <trkpt lat="43.26454" lon="6.58045">
        <ele>5</ele>
        <time>2019-07-27T06:51:20Z</time>
      </trkpt>
      <trkpt lat="43.26432" lon="6.58092">
        <ele>5</ele>
        <time>2019-07-27T06:51:35Z</time>
      </trkpt>
      <trkpt lat="43.26386" lon="6.58075">
        <ele>5.0963</ele>
        <time>2019-07-27T06:51:51Z</time>
      </trkpt>
      <trkpt lat="43.26342" lon="6.58061">
        <ele>5.7025</ele>
        <time>2019-07-27T06:52:06Z</time>
      </trkpt>
      <trkpt lat="43.26329" lon="6.58123">
        <ele>5</ele>
        <time>2019-07-27T06:52:25Z</time>
      </trkpt>
      <trkpt lat="43.26318" lon="6.58188">
        <ele>5</ele>
        <time>2019-07-27T06:52:39Z</time>
      </trkpt>
      <trkpt lat="43.26292" lon="6.58249">
        <ele>4.640881</ele>
        <time>2019-07-27T06:53:13Z</time>
      </trkpt>
      <trkpt lat="43.26283" lon="6.58316">
        <ele>4.12375</ele>
        <time>2019-07-27T06:53:25Z</time>
      </trkpt>
      <trkpt lat="43.26264" lon="6.58376">
        <ele>4</ele>
        <time>2019-07-27T06:53:40Z</time>
      </trkpt>
      <trkpt lat="43.26223" lon="6.58369">
        <ele>4.54</ele>
        <time>2019-07-27T06:53:57Z</time>
      </trkpt>
      <trkpt lat="43.26177" lon="6.58345">
        <ele>5</ele>
        <time>2019-07-27T06:54:11Z</time>
      </trkpt>
      <trkpt lat="43.26131" lon="6.58322">
        <ele>5</ele>
        <time>2019-07-27T06:54:26Z</time>
      </trkpt>
      <trkpt lat="43.26085" lon="6.58298">
        <ele>5</ele>
        <time>2019-07-27T06:54:41Z</time>
      </trkpt>
      <trkpt lat="43.26041" lon="6.58275">
        <ele>5</ele>
        <time>2019-07-27T06:54:56Z</time>
      </trkpt>
      <trkpt lat="43.25996" lon="6.58252">
        <ele>5</ele>
        <time>2019-07-27T06:55:10Z</time>
      </trkpt>
      <trkpt lat="43.25967" lon="6.58203">
        <ele>5.350575</ele>
        <time>2019-07-27T06:55:25Z</time>
      </trkpt>
      <trkpt lat="43.25927" lon="6.5817">
        <ele>6</ele>
        <time>2019-07-27T06:55:39Z</time>
      </trkpt>
      <trkpt lat="43.25882" lon="6.58148">
        <ele>6</ele>
        <time>2019-07-27T06:55:54Z</time>
      </trkpt>
      <trkpt lat="43.25858" lon="6.58202">
        <ele>5.83625</ele>
        <time>2019-07-27T06:56:08Z</time>
      </trkpt>
      <trkpt lat="43.25816" lon="6.58197">
        <ele>5.86875</ele>
        <time>2019-07-27T06:56:22Z</time>
      </trkpt>
      <trkpt lat="43.25775" lon="6.58166">
        <ele>6</ele>
        <time>2019-07-27T06:56:38Z</time>
      </trkpt>
      <trkpt lat="43.25731" lon="6.58184">
        <ele>5.97375</ele>
        <time>2019-07-27T06:56:53Z</time>
      </trkpt>
      <trkpt lat="43.25694" lon="6.5822">
        <ele>5.35125</ele>
        <time>2019-07-27T06:57:04Z</time>
      </trkpt>
      <trkpt lat="43.25652" lon="6.58257">
        <ele>5.233997</ele>
        <time>2019-07-27T06:57:14Z</time>
      </trkpt>
      <trkpt lat="43.2561" lon="6.58289">
        <ele>5.327212</ele>
        <time>2019-07-27T06:57:24Z</time>
      </trkpt>
      <trkpt lat="43.25569" lon="6.58325">
        <ele>6</ele>
        <time>2019-07-27T06:57:35Z</time>
      </trkpt>
      <trkpt lat="43.25538" lon="6.5837">
        <ele>6</ele>
        <time>2019-07-27T06:57:45Z</time>
      </trkpt>
      <trkpt lat="43.25507" lon="6.5842">
        <ele>6.479341</ele>
        <time>2019-07-27T06:57:57Z</time>
      </trkpt>
      <trkpt lat="43.25472" lon="6.58465">
        <ele>7.12825</ele>
        <time>2019-07-27T06:59:20Z</time>
      </trkpt>
      <trkpt lat="43.25443" lon="6.58504">
        <ele>8.335</ele>
        <time>2019-07-27T07:00:10Z</time>
      </trkpt>
      <trkpt lat="43.25402" lon="6.58531">
        <ele>9.66675</ele>
        <time>2019-07-27T07:00:43Z</time>
      </trkpt>
      <trkpt lat="43.25359" lon="6.58484">
        <ele>9.7695</ele>
        <time>2019-07-27T07:01:04Z</time>
      </trkpt>
      <trkpt lat="43.25308" lon="6.5845">
        <ele>9.541356</ele>
        <time>2019-07-27T07:01:23Z</time>
      </trkpt>
      <trkpt lat="43.25265" lon="6.58413">
        <ele>10.2125</ele>
        <time>2019-07-27T07:01:44Z</time>
      </trkpt>
      <trkpt lat="43.2522" lon="6.58366">
        <ele>10.8625</ele>
        <time>2019-07-27T07:02:04Z</time>
      </trkpt>
      <trkpt lat="43.25183" lon="6.58318">
        <ele>11.1125</ele>
        <time>2019-07-27T07:02:21Z</time>
      </trkpt>
      <trkpt lat="43.25141" lon="6.58275">
        <ele>12.515913</ele>
        <time>2019-07-27T07:02:40Z</time>
      </trkpt>
      <trkpt lat="43.25106" lon="6.58221">
        <ele>12.485</ele>
        <time>2019-07-27T07:02:58Z</time>
      </trkpt>
      <trkpt lat="43.25061" lon="6.58185">
        <ele>14.347813</ele>
        <time>2019-07-27T07:03:15Z</time>
      </trkpt>
      <trkpt lat="43.2501" lon="6.58154">
        <ele>15.16135</ele>
        <time>2019-07-27T07:03:41Z</time>
      </trkpt>
      <trkpt lat="43.24964" lon="6.58117">
        <ele>15.922294</ele>
        <time>2019-07-27T07:04:00Z</time>
      </trkpt>
      <trkpt lat="43.24913" lon="6.58101">
        <ele>16.649143</ele>
        <time>2019-07-27T07:04:20Z</time>
      </trkpt>
      <trkpt lat="43.24859" lon="6.58084">
        <ele>18.190313</ele>
        <time>2019-07-27T07:04:41Z</time>
      </trkpt>
      <trkpt lat="43.24809" lon="6.58054">
        <ele>17.637085</ele>
        <time>2019-07-27T07:05:03Z</time>
      </trkpt>
      <trkpt lat="43.2477" lon="6.58002">
        <ele>16.273563</ele>
        <time>2019-07-27T07:05:18Z</time>
      </trkpt>
      <trkpt lat="43.24724" lon="6.57972">
        <ele>16.637501</ele>
        <time>2019-07-27T07:05:41Z</time>
      </trkpt>
      <trkpt lat="43.24674" lon="6.57951">
        <ele>17.694838</ele>
        <time>2019-07-27T07:06:07Z</time>
      </trkpt>
      <trkpt lat="43.24624" lon="6.57941">
        <ele>18.466999</ele>
        <time>2019-07-27T07:06:45Z</time>
      </trkpt>
      <trkpt lat="43.24581" lon="6.57975">
        <ele>22.045156</ele>
        <time>2019-07-27T07:07:29Z</time>
      </trkpt>
      <trkpt lat="43.24532" lon="6.57947">
        <ele>20.689131</ele>
        <time>2019-07-27T07:07:58Z</time>
      </trkpt>
      <trkpt lat="43.245" lon="6.57886">
        <ele>22.728765</ele>
        <time>2019-07-27T07:08:19Z</time>
      </trkpt>
      <trkpt lat="43.24492" lon="6.57817">
        <ele>19.629</ele>
        <time>2019-07-27T07:08:36Z</time>
      </trkpt>
      <trkpt lat="43.24468" lon="6.57768">
        <ele>18.914</ele>
        <time>2019-07-27T07:09:09Z</time>
      </trkpt>
      <trkpt lat="43.24421" lon="6.5772">
        <ele>21.067499</ele>
        <time>2019-07-27T07:09:49Z</time>
      </trkpt>
      <trkpt lat="43.24418" lon="6.57663">
        <ele>19.151062</ele>
        <time>2019-07-27T07:10:05Z</time>
      </trkpt>
      <trkpt lat="43.24437" lon="6.57607">
        <ele>17.0875</ele>
        <time>2019-07-27T07:10:20Z</time>
      </trkpt>
      <trkpt lat="43.24441" lon="6.57546">
        <ele>16.174585</ele>
        <time>2019-07-27T07:10:36Z</time>
      </trkpt>
      <trkpt lat="43.24409" lon="6.57457">
        <ele>16.5903</ele>
        <time>2019-07-27T07:11:05Z</time>
      </trkpt>
      <trkpt lat="43.24389" lon="6.57384">
        <ele>17.361601</ele>
        <time>2019-07-27T07:11:26Z</time>
      </trkpt>
      <trkpt lat="43.24372" lon="6.57318">
        <ele>17.186251</ele>
        <time>2019-07-27T07:11:46Z</time>
      </trkpt>
      <trkpt lat="43.24409" lon="6.57301">
        <ele>15.9954</ele>
        <time>2019-07-27T07:12:10Z</time>
      </trkpt>
      <trkpt lat="43.24457" lon="6.573">
        <ele>14.73</ele>
        <time>2019-07-27T07:12:30Z</time>
      </trkpt>
      <trkpt lat="43.24495" lon="6.57263">
        <ele>14</ele>
        <time>2019-07-27T07:12:42Z</time>
      </trkpt>
      <trkpt lat="43.24517" lon="6.57206">
        <ele>14.40875</ele>
        <time>2019-07-27T07:12:54Z</time>
      </trkpt>
      <trkpt lat="43.24508" lon="6.5716">
        <ele>15.285</ele>
        <time>2019-07-27T07:13:08Z</time>
      </trkpt>
      <trkpt lat="43.24469" lon="6.57129">
        <ele>15.834462</ele>
        <time>2019-07-27T07:13:24Z</time>
      </trkpt>
      <trkpt lat="43.24424" lon="6.57113">
        <ele>15.80875</ele>
        <time>2019-07-27T07:13:40Z</time>
      </trkpt>
      <trkpt lat="43.24376" lon="6.57089">
        <ele>16.147499</ele>
        <time>2019-07-27T07:13:56Z</time>
      </trkpt>
      <trkpt lat="43.2433" lon="6.57054">
        <ele>16.661249</ele>
        <time>2019-07-27T07:14:13Z</time>
      </trkpt>
      <trkpt lat="43.24285" lon="6.57079">
        <ele>16.19375</ele>
        <time>2019-07-27T07:14:29Z</time>
      </trkpt>
      <trkpt lat="43.24245" lon="6.5711">
        <ele>16</ele>
        <time>2019-07-27T07:14:44Z</time>
      </trkpt>
      <trkpt lat="43.24201" lon="6.57145">
        <ele>16.545</ele>
        <time>2019-07-27T07:15:00Z</time>
      </trkpt>
      <trkpt lat="43.24159" lon="6.57175">
        <ele>18.113155</ele>
        <time>2019-07-27T07:15:15Z</time>
      </trkpt>
      <trkpt lat="43.24119" lon="6.57206">
        <ele>20.526251</ele>
        <time>2019-07-27T07:15:29Z</time>
      </trkpt>
      <trkpt lat="43.24076" lon="6.57235">
        <ele>22.233749</ele>
        <time>2019-07-27T07:15:44Z</time>
      </trkpt>
      <trkpt lat="43.2403" lon="6.57259">
        <ele>23.370857</ele>
        <time>2019-07-27T07:15:58Z</time>
      </trkpt>
      <trkpt lat="43.23984" lon="6.5727">
        <ele>27.374374</ele>
        <time>2019-07-27T07:16:10Z</time>
      </trkpt>
      <trkpt lat="43.23937" lon="6.57286">
        <ele>27.9389</ele>
        <time>2019-07-27T07:16:22Z</time>
      </trkpt>
      <trkpt lat="43.23891" lon="6.57297">
        <ele>28.026094</ele>
        <time>2019-07-27T07:16:35Z</time>
      </trkpt>
      <trkpt lat="43.23843" lon="6.57312">
        <ele>28.681047</ele>
        <time>2019-07-27T07:16:49Z</time>
      </trkpt>
      <trkpt lat="43.23796" lon="6.57326">
        <ele>30.249756</ele>
        <time>2019-07-27T07:17:03Z</time>
      </trkpt>
      <trkpt lat="43.2375" lon="6.57339">
        <ele>31.184763</ele>
        <time>2019-07-27T07:17:16Z</time>
      </trkpt>
      <trkpt lat="43.23702" lon="6.57352">
        <ele>32.432911</ele>
        <time>2019-07-27T07:17:29Z</time>
      </trkpt>
      <trkpt lat="43.23657" lon="6.57371">
        <ele>33.44923</ele>
        <time>2019-07-27T07:17:41Z</time>
      </trkpt>
      <trkpt lat="43.23611" lon="6.57391">
        <ele>34.518726</ele>
        <time>2019-07-27T07:17:53Z</time>
      </trkpt>
      <trkpt lat="43.23567" lon="6.57401">
        <ele>35.31625</ele>
        <time>2019-07-27T07:18:11Z</time>
      </trkpt>
      <trkpt lat="43.2352" lon="6.57413">
        <ele>37.120113</ele>
        <time>2019-07-27T07:18:27Z</time>
      </trkpt>
      <trkpt lat="43.23474" lon="6.57425">
        <ele>39.610336</ele>
        <time>2019-07-27T07:18:41Z</time>
      </trkpt>
      <trkpt lat="43.23427" lon="6.57435">
        <ele>43.369343</ele>
        <time>2019-07-27T07:18:56Z</time>
      </trkpt>
      <trkpt lat="43.23382" lon="6.57446">
        <ele>46.851173</ele>
        <time>2019-07-27T07:19:11Z</time>
      </trkpt>
      <trkpt lat="43.23337" lon="6.5746">
        <ele>49.244118</ele>
        <time>2019-07-27T07:19:25Z</time>
      </trkpt>
      <trkpt lat="43.23293" lon="6.57472">
        <ele>50.578987</ele>
        <time>2019-07-27T07:19:39Z</time>
      </trkpt>
      <trkpt lat="43.23247" lon="6.57486">
        <ele>50.384663</ele>
        <time>2019-07-27T07:19:52Z</time>
      </trkpt>
      <trkpt lat="43.23201" lon="6.57501">
        <ele>49.005749</ele>
        <time>2019-07-27T07:20:04Z</time>
      </trkpt>
      <trkpt lat="43.23158" lon="6.57512">
        <ele>47.686295</ele>
        <time>2019-07-27T07:20:29Z</time>
      </trkpt>
      <trkpt lat="43.23113" lon="6.57529">
        <ele>46.442711</ele>
        <time>2019-07-27T07:20:41Z</time>
      </trkpt>
      <trkpt lat="43.23072" lon="6.57519">
        <ele>44.745911</ele>
        <time>2019-07-27T07:20:57Z</time>
      </trkpt>
      <trkpt lat="43.23029" lon="6.57506">
        <ele>42.608093</ele>
        <time>2019-07-27T07:21:06Z</time>
      </trkpt>
      <trkpt lat="43.22984" lon="6.5752">
        <ele>42.327499</ele>
        <time>2019-07-27T07:21:14Z</time>
      </trkpt>
      <trkpt lat="43.22937" lon="6.57537">
        <ele>42.296249</ele>
        <time>2019-07-27T07:21:23Z</time>
      </trkpt>
      <trkpt lat="43.22893" lon="6.57555">
        <ele>42.116249</ele>
        <time>2019-07-27T07:21:36Z</time>
      </trkpt>
      <trkpt lat="43.22851" lon="6.57578">
        <ele>41.78207</ele>
        <time>2019-07-27T07:21:53Z</time>
      </trkpt>
      <trkpt lat="43.22803" lon="6.57592">
        <ele>41.599998</ele>
        <time>2019-07-27T07:22:07Z</time>
      </trkpt>
      <trkpt lat="43.22752" lon="6.57604">
        <ele>41.463749</ele>
        <time>2019-07-27T07:22:21Z</time>
      </trkpt>
      <trkpt lat="43.22706" lon="6.57597">
        <ele>40.885509</ele>
        <time>2019-07-27T07:22:35Z</time>
      </trkpt>
      <trkpt lat="43.22659" lon="6.57586">
        <ele>40.852501</ele>
        <time>2019-07-27T07:22:50Z</time>
      </trkpt>
      <trkpt lat="43.22607" lon="6.57577">
        <ele>45.448257</ele>
        <time>2019-07-27T07:23:07Z</time>
      </trkpt>
      <trkpt lat="43.22572" lon="6.5757">
        <ele>48.528851</ele>
        <time>2019-07-27T07:23:29Z</time>
      </trkpt>
      <trkpt lat="43.22587" lon="6.57504">
        <ele>46.095001</ele>
        <time>2019-07-27T07:23:42Z</time>
      </trkpt>
      <trkpt lat="43.22595" lon="6.57438">
        <ele>42.648735</ele>
        <time>2019-07-27T07:23:49Z</time>
      </trkpt>
      <trkpt lat="43.22608" lon="6.57369">
        <ele>40.703236</ele>
        <time>2019-07-27T07:23:56Z</time>
      </trkpt>
      <trkpt lat="43.22624" lon="6.57309">
        <ele>37.652481</ele>
        <time>2019-07-27T07:24:03Z</time>
      </trkpt>
      <trkpt lat="43.22653" lon="6.57257">
        <ele>34.202023</ele>
        <time>2019-07-27T07:24:10Z</time>
      </trkpt>
      <trkpt lat="43.22644" lon="6.57217">
        <ele>31.055124</ele>
        <time>2019-07-27T07:25:31Z</time>
      </trkpt>
      <trkpt lat="43.22603" lon="6.5719">
        <ele>29.848749</ele>
        <time>2019-07-27T07:25:43Z</time>
      </trkpt>
      <trkpt lat="43.22561" lon="6.5716">
        <ele>28.56625</ele>
        <time>2019-07-27T07:25:54Z</time>
      </trkpt>
      <trkpt lat="43.22518" lon="6.57124">
        <ele>29.31625</ele>
        <time>2019-07-27T07:26:03Z</time>
      </trkpt>
      <trkpt lat="43.22479" lon="6.57092">
        <ele>30.553062</ele>
        <time>2019-07-27T07:26:14Z</time>
      </trkpt>
      <trkpt lat="43.2243" lon="6.57083">
        <ele>31.7875</ele>
        <time>2019-07-27T07:26:26Z</time>
      </trkpt>
      <trkpt lat="43.22379" lon="6.57087">
        <ele>32.679626</ele>
        <time>2019-07-27T07:26:38Z</time>
      </trkpt>
      <trkpt lat="43.22337" lon="6.57067">
        <ele>34.158749</ele>
        <time>2019-07-27T07:26:51Z</time>
      </trkpt>
      <trkpt lat="43.22307" lon="6.57016">
        <ele>36.361248</ele>
        <time>2019-07-27T07:27:05Z</time>
      </trkpt>
      <trkpt lat="43.22282" lon="6.56966">
        <ele>38.348751</ele>
        <time>2019-07-27T07:27:19Z</time>
      </trkpt>
      <trkpt lat="43.22263" lon="6.56909">
        <ele>40.204998</ele>
        <time>2019-07-27T07:27:33Z</time>
      </trkpt>
      <trkpt lat="43.22229" lon="6.56863">
        <ele>43.307846</ele>
        <time>2019-07-27T07:27:51Z</time>
      </trkpt>
      <trkpt lat="43.22185" lon="6.5684">
        <ele>46.155937</ele>
        <time>2019-07-27T07:28:09Z</time>
      </trkpt>
      <trkpt lat="43.22132" lon="6.5682">
        <ele>49.448345</ele>
        <time>2019-07-27T07:28:29Z</time>
      </trkpt>
      <trkpt lat="43.2208" lon="6.56816">
        <ele>52.785</ele>
        <time>2019-07-27T07:28:50Z</time>
      </trkpt>
      <trkpt lat="43.22033" lon="6.56784">
        <ele>57.075748</ele>
        <time>2019-07-27T07:29:15Z</time>
      </trkpt>
      <trkpt lat="43.2199" lon="6.56747">
        <ele>61.862118</ele>
        <time>2019-07-27T07:29:44Z</time>
      </trkpt>
      <trkpt lat="43.21951" lon="6.56698">
        <ele>67.973083</ele>
        <time>2019-07-27T07:30:19Z</time>
      </trkpt>
      <trkpt lat="43.21913" lon="6.56632">
        <ele>74.192589</ele>
        <time>2019-07-27T07:30:58Z</time>
      </trkpt>
      <trkpt lat="43.21874" lon="6.56576">
        <ele>77.894104</ele>
        <time>2019-07-27T07:31:34Z</time>
      </trkpt>
      <trkpt lat="43.21848" lon="6.56519">
        <ele>80.959999</ele>
        <time>2019-07-27T07:32:04Z</time>
      </trkpt>
      <trkpt lat="43.21818" lon="6.56464">
        <ele>85.073128</ele>
        <time>2019-07-27T07:32:56Z</time>
      </trkpt>
      <trkpt lat="43.21809" lon="6.56398">
        <ele>90.364334</ele>
        <time>2019-07-27T07:35:58Z</time>
      </trkpt>
      <trkpt lat="43.21827" lon="6.56341">
        <ele>94.356667</ele>
        <time>2019-07-27T07:36:27Z</time>
      </trkpt>
      <trkpt lat="43.21839" lon="6.5628">
        <ele>98.028748</ele>
        <time>2019-07-27T07:36:55Z</time>
      </trkpt>
      <trkpt lat="43.21839" lon="6.56213">
        <ele>102.490837</ele>
        <time>2019-07-27T07:37:23Z</time>
      </trkpt>
      <trkpt lat="43.2184" lon="6.56148">
        <ele>106.958809</ele>
        <time>2019-07-27T07:37:50Z</time>
      </trkpt>
      <trkpt lat="43.21851" lon="6.56087">
        <ele>109.116028</ele>
        <time>2019-07-27T07:38:12Z</time>
      </trkpt>
      <trkpt lat="43.21867" lon="6.56024">
        <ele>107.405327</ele>
        <time>2019-07-27T07:38:29Z</time>
      </trkpt>
      <trkpt lat="43.21882" lon="6.55962">
        <ele>104.452293</ele>
        <time>2019-07-27T07:38:43Z</time>
      </trkpt>
      <trkpt lat="43.21893" lon="6.55895">
        <ele>101.25367</ele>
        <time>2019-07-27T07:38:58Z</time>
      </trkpt>
      <trkpt lat="43.21878" lon="6.55832">
        <ele>103.809998</ele>
        <time>2019-07-27T07:39:17Z</time>
      </trkpt>
      <trkpt lat="43.21882" lon="6.55764">
        <ele>97.622566</ele>
        <time>2019-07-27T07:39:36Z</time>
      </trkpt>
      <trkpt lat="43.21862" lon="6.55702">
        <ele>96.062798</ele>
        <time>2019-07-27T07:39:51Z</time>
      </trkpt>
      <trkpt lat="43.21828" lon="6.55658">
        <ele>95.8022</ele>
        <time>2019-07-27T07:40:05Z</time>
      </trkpt>
      <trkpt lat="43.21781" lon="6.55639">
        <ele>95.260002</ele>
        <time>2019-07-27T07:40:18Z</time>
      </trkpt>
      <trkpt lat="43.21733" lon="6.55657">
        <ele>96.584862</ele>
        <time>2019-07-27T07:40:30Z</time>
      </trkpt>
      <trkpt lat="43.2169" lon="6.55677">
        <ele>95.3283</ele>
        <time>2019-07-27T07:40:40Z</time>
      </trkpt>
      <trkpt lat="43.2165" lon="6.55659">
        <ele>92.474304</ele>
        <time>2019-07-27T07:40:51Z</time>
      </trkpt>
      <trkpt lat="43.21634" lon="6.55608">
        <ele>90.110847</ele>
        <time>2019-07-27T07:41:08Z</time>
      </trkpt>
      <trkpt lat="43.21684" lon="6.55602">
        <ele>86.142349</ele>
        <time>2019-07-27T07:41:25Z</time>
      </trkpt>
      <trkpt lat="43.21733" lon="6.55601">
        <ele>85.724472</ele>
        <time>2019-07-27T07:41:34Z</time>
      </trkpt>
      <trkpt lat="43.21772" lon="6.5556">
        <ele>83.695313</ele>
        <time>2019-07-27T07:41:49Z</time>
      </trkpt>
      <trkpt lat="43.21819" lon="6.55554">
        <ele>82.179375</ele>
        <time>2019-07-27T07:41:59Z</time>
      </trkpt>
      <trkpt lat="43.21867" lon="6.55577">
        <ele>81.378601</ele>
        <time>2019-07-27T07:42:09Z</time>
      </trkpt>
      <trkpt lat="43.21914" lon="6.55584">
        <ele>84.729149</ele>
        <time>2019-07-27T07:42:29Z</time>
      </trkpt>
      <trkpt lat="43.21949" lon="6.55548">
        <ele>92.995003</ele>
        <time>2019-07-27T07:42:51Z</time>
      </trkpt>
      <trkpt lat="43.21981" lon="6.55499">
        <ele>98.490265</ele>
        <time>2019-07-27T07:43:14Z</time>
      </trkpt>
      <trkpt lat="43.22017" lon="6.5546">
        <ele>98.253189</ele>
        <time>2019-07-27T07:43:31Z</time>
      </trkpt>
      <trkpt lat="43.22062" lon="6.55436">
        <ele>94.0625</ele>
        <time>2019-07-27T07:43:44Z</time>
      </trkpt>
      <trkpt lat="43.22112" lon="6.55429">
        <ele>89.483597</ele>
        <time>2019-07-27T07:43:54Z</time>
      </trkpt>
      <trkpt lat="43.22152" lon="6.55394">
        <ele>88.83844</ele>
        <time>2019-07-27T07:44:02Z</time>
      </trkpt>
      <trkpt lat="43.22191" lon="6.55364">
        <ele>89.725571</ele>
        <time>2019-07-27T07:44:14Z</time>
      </trkpt>
      <trkpt lat="43.22234" lon="6.55337">
        <ele>88.885803</ele>
        <time>2019-07-27T07:44:32Z</time>
      </trkpt>
      <trkpt lat="43.22272" lon="6.55299">
        <ele>90.487396</ele>
        <time>2019-07-27T07:44:49Z</time>
      </trkpt>
      <trkpt lat="43.22309" lon="6.55259">
        <ele>93.57</ele>
        <time>2019-07-27T07:45:07Z</time>
      </trkpt>
      <trkpt lat="43.22353" lon="6.5523">
        <ele>95.667564</ele>
        <time>2019-07-27T07:45:27Z</time>
      </trkpt>
      <trkpt lat="43.22393" lon="6.55189">
        <ele>96.483658</ele>
        <time>2019-07-27T07:45:48Z</time>
      </trkpt>
      <trkpt lat="43.22421" lon="6.55132">
        <ele>91.333946</ele>
        <time>2019-07-27T07:46:01Z</time>
      </trkpt>
      <trkpt lat="43.22448" lon="6.55086">
        <ele>82.629204</ele>
        <time>2019-07-27T07:46:16Z</time>
      </trkpt>
      <trkpt lat="43.22497" lon="6.55067">
        <ele>70.244102</ele>
        <time>2019-07-27T07:46:29Z</time>
      </trkpt>
      <trkpt lat="43.22546" lon="6.55038">
        <ele>61.715389</ele>
        <time>2019-07-27T07:46:37Z</time>
      </trkpt>
      <trkpt lat="43.22562" lon="6.54991">
        <ele>64.114876</ele>
        <time>2019-07-27T07:46:57Z</time>
      </trkpt>
      <trkpt lat="43.22564" lon="6.54934">
        <ele>67.530746</ele>
        <time>2019-07-27T07:48:11Z</time>
      </trkpt>
      <trkpt lat="43.22611" lon="6.54947">
        <ele>77.100685</ele>
        <time>2019-07-27T07:48:39Z</time>
      </trkpt>
      <trkpt lat="43.2265" lon="6.54964">
        <ele>81.388969</ele>
        <time>2019-07-27T07:49:12Z</time>
      </trkpt>
      <trkpt lat="43.22627" lon="6.54914">
        <ele>86.475761</ele>
        <time>2019-07-27T07:49:34Z</time>
      </trkpt>
      <trkpt lat="43.22593" lon="6.54865">
        <ele>88.560455</ele>
        <time>2019-07-27T07:49:55Z</time>
      </trkpt>
      <trkpt lat="43.22572" lon="6.54811">
        <ele>94.914391</ele>
        <time>2019-07-27T07:50:16Z</time>
      </trkpt>
      <trkpt lat="43.22539" lon="6.54768">
        <ele>94.115028</ele>
        <time>2019-07-27T07:50:42Z</time>
      </trkpt>
      <trkpt lat="43.22521" lon="6.54714">
        <ele>96.193748</ele>
        <time>2019-07-27T07:51:04Z</time>
      </trkpt>
      <trkpt lat="43.22521" lon="6.54653">
        <ele>103.065773</ele>
        <time>2019-07-27T07:51:28Z</time>
      </trkpt>
      <trkpt lat="43.225" lon="6.54599">
        <ele>104.786201</ele>
        <time>2019-07-27T07:51:52Z</time>
      </trkpt>
      <trkpt lat="43.22486" lon="6.5454">
        <ele>109.810349</ele>
        <time>2019-07-27T07:52:18Z</time>
      </trkpt>
      <trkpt lat="43.22464" lon="6.54487">
        <ele>111.342499</ele>
        <time>2019-07-27T07:52:43Z</time>
      </trkpt>
      <trkpt lat="43.2244" lon="6.54434">
        <ele>116.00914</ele>
        <time>2019-07-27T07:53:10Z</time>
      </trkpt>
      <trkpt lat="43.22425" lon="6.54374">
        <ele>122.448128</ele>
        <time>2019-07-27T07:53:33Z</time>
      </trkpt>
      <trkpt lat="43.22396" lon="6.54325">
        <ele>125.733002</ele>
        <time>2019-07-27T07:53:57Z</time>
      </trkpt>
      <trkpt lat="43.22367" lon="6.54275">
        <ele>129.511749</ele>
        <time>2019-07-27T07:54:21Z</time>
      </trkpt>
      <trkpt lat="43.2234" lon="6.54225">
        <ele>131.8405</ele>
        <time>2019-07-27T07:54:47Z</time>
      </trkpt>
      <trkpt lat="43.22318" lon="6.54171">
        <ele>134.793015</ele>
        <time>2019-07-27T07:55:14Z</time>
      </trkpt>
      <trkpt lat="43.22301" lon="6.54113">
        <ele>142.849548</ele>
        <time>2019-07-27T07:55:44Z</time>
      </trkpt>
      <trkpt lat="43.2227" lon="6.54068">
        <ele>141.199982</ele>
        <time>2019-07-27T07:56:15Z</time>
      </trkpt>
      <trkpt lat="43.22257" lon="6.54009">
        <ele>149.329193</ele>
        <time>2019-07-27T07:56:46Z</time>
      </trkpt>
      <trkpt lat="43.22241" lon="6.53953">
        <ele>154.514069</ele>
        <time>2019-07-27T07:57:15Z</time>
      </trkpt>
      <trkpt lat="43.22213" lon="6.53903">
        <ele>160.156067</ele>
        <time>2019-07-27T07:57:47Z</time>
      </trkpt>
      <trkpt lat="43.2217" lon="6.53881">
        <ele>159.388794</ele>
        <time>2019-07-27T07:58:17Z</time>
      </trkpt>
      <trkpt lat="43.22126" lon="6.53863">
        <ele>163.426285</ele>
        <time>2019-07-27T07:58:47Z</time>
      </trkpt>
      <trkpt lat="43.22081" lon="6.53846">
        <ele>166.87027</ele>
        <time>2019-07-27T07:59:21Z</time>
      </trkpt>
      <trkpt lat="43.22037" lon="6.53823">
        <ele>174.940201</ele>
        <time>2019-07-27T07:59:55Z</time>
      </trkpt>
      <trkpt lat="43.21991" lon="6.53832">
        <ele>175.798752</ele>
        <time>2019-07-27T08:00:26Z</time>
      </trkpt>
      <trkpt lat="43.21947" lon="6.53842">
        <ele>186.141602</ele>
        <time>2019-07-27T08:02:56Z</time>
      </trkpt>
      <trkpt lat="43.21931" lon="6.53907">
        <ele>185.674103</ele>
        <time>2019-07-27T08:03:23Z</time>
      </trkpt>
      <trkpt lat="43.21914" lon="6.53966">
        <ele>185.314194</ele>
        <time>2019-07-27T08:03:48Z</time>
      </trkpt>
      <trkpt lat="43.21878" lon="6.54007">
        <ele>187.778381</ele>
        <time>2019-07-27T08:04:13Z</time>
      </trkpt>
      <trkpt lat="43.21835" lon="6.54036">
        <ele>195.515854</ele>
        <time>2019-07-27T08:04:41Z</time>
      </trkpt>
      <trkpt lat="43.21791" lon="6.54039">
        <ele>203.778885</ele>
        <time>2019-07-27T08:05:07Z</time>
      </trkpt>
      <trkpt lat="43.21745" lon="6.54042">
        <ele>206.22551</ele>
        <time>2019-07-27T08:05:33Z</time>
      </trkpt>
      <trkpt lat="43.21705" lon="6.54053">
        <ele>209.975647</ele>
        <time>2019-07-27T08:05:55Z</time>
      </trkpt>
      <trkpt lat="43.21738" lon="6.54099">
        <ele>205.908752</ele>
        <time>2019-07-27T08:06:18Z</time>
      </trkpt>
      <trkpt lat="43.21774" lon="6.54115">
        <ele>207.387344</ele>
        <time>2019-07-27T08:06:41Z</time>
      </trkpt>
      <trkpt lat="43.2182" lon="6.54126">
        <ele>210.365906</ele>
        <time>2019-07-27T08:07:04Z</time>
      </trkpt>
      <trkpt lat="43.21863" lon="6.54141">
        <ele>212.283432</ele>
        <time>2019-07-27T08:07:30Z</time>
      </trkpt>
      <trkpt lat="43.21909" lon="6.54152">
        <ele>217.313904</ele>
        <time>2019-07-27T08:08:00Z</time>
      </trkpt>
      <trkpt lat="43.21951" lon="6.54178">
        <ele>217.757446</ele>
        <time>2019-07-27T08:08:31Z</time>
      </trkpt>
      <trkpt lat="43.21965" lon="6.54236">
        <ele>217.598846</ele>
        <time>2019-07-27T08:09:02Z</time>
      </trkpt>
      <trkpt lat="43.21937" lon="6.54281">
        <ele>220.831253</ele>
        <time>2019-07-27T08:09:34Z</time>
      </trkpt>
      <trkpt lat="43.21894" lon="6.543">
        <ele>226.848343</ele>
        <time>2019-07-27T08:10:04Z</time>
      </trkpt>
      <trkpt lat="43.21851" lon="6.54276">
        <ele>234.509369</ele>
        <time>2019-07-27T08:10:34Z</time>
      </trkpt>
      <trkpt lat="43.21817" lon="6.54257">
        <ele>236.190414</ele>
        <time>2019-07-27T08:13:19Z</time>
      </trkpt>
      <trkpt lat="43.2177" lon="6.5427">
        <ele>237.500031</ele>
        <time>2019-07-27T08:13:37Z</time>
      </trkpt>
      <trkpt lat="43.21725" lon="6.54275">
        <ele>241.423325</ele>
        <time>2019-07-27T08:13:54Z</time>
      </trkpt>
      <trkpt lat="43.21697" lon="6.54231">
        <ele>244.016754</ele>
        <time>2019-07-27T08:14:10Z</time>
      </trkpt>
      <trkpt lat="43.21686" lon="6.54168">
        <ele>239.074493</ele>
        <time>2019-07-27T08:14:26Z</time>
      </trkpt>
      <trkpt lat="43.21644" lon="6.54147">
        <ele>246.392502</ele>
        <time>2019-07-27T08:14:42Z</time>
      </trkpt>
      <trkpt lat="43.21599" lon="6.54131">
        <ele>250.327393</ele>
        <time>2019-07-27T08:15:00Z</time>
      </trkpt>
      <trkpt lat="43.21558" lon="6.54096">
        <ele>251.445496</ele>
        <time>2019-07-27T08:15:20Z</time>
      </trkpt>
      <trkpt lat="43.21526" lon="6.54051">
        <ele>245.954407</ele>
        <time>2019-07-27T08:15:40Z</time>
      </trkpt>
      <trkpt lat="43.21483" lon="6.54068">
        <ele>254.679428</ele>
        <time>2019-07-27T08:16:06Z</time>
      </trkpt>
      <trkpt lat="43.2144" lon="6.54068">
        <ele>257.131866</ele>
        <time>2019-07-27T08:16:32Z</time>
      </trkpt>
      <trkpt lat="43.21397" lon="6.54094">
        <ele>266.335297</ele>
        <time>2019-07-27T08:17:01Z</time>
      </trkpt>
      <trkpt lat="43.21375" lon="6.54044">
        <ele>264.644623</ele>
        <time>2019-07-27T08:17:31Z</time>
      </trkpt>
      <trkpt lat="43.21337" lon="6.54012">
        <ele>271.072968</ele>
        <time>2019-07-27T08:17:59Z</time>
      </trkpt>
      <trkpt lat="43.21292" lon="6.54002">
        <ele>276.746033</ele>
        <time>2019-07-27T08:18:32Z</time>
      </trkpt>
      <trkpt lat="43.2125" lon="6.53993">
        <ele>281.153107</ele>
        <time>2019-07-27T08:18:58Z</time>
      </trkpt>
      <trkpt lat="43.21263" lon="6.53934">
        <ele>279.365112</ele>
        <time>2019-07-27T08:19:25Z</time>
      </trkpt>
      <trkpt lat="43.2124" lon="6.53879">
        <ele>285.511261</ele>
        <time>2019-07-27T08:19:54Z</time>
      </trkpt>
      <trkpt lat="43.2122" lon="6.53824">
        <ele>289.486053</ele>
        <time>2019-07-27T08:20:21Z</time>
      </trkpt>
      <trkpt lat="43.21182" lon="6.53791">
        <ele>294.891357</ele>
        <time>2019-07-27T08:20:53Z</time>
      </trkpt>
      <trkpt lat="43.21142" lon="6.53765">
        <ele>301.329376</ele>
        <time>2019-07-27T08:21:22Z</time>
      </trkpt>
      <trkpt lat="43.21098" lon="6.53742">
        <ele>304.306305</ele>
        <time>2019-07-27T08:21:53Z</time>
      </trkpt>
      <trkpt lat="43.21055" lon="6.53723">
        <ele>305.443115</ele>
        <time>2019-07-27T08:22:19Z</time>
      </trkpt>
      <trkpt lat="43.21007" lon="6.53723">
        <ele>308.588074</ele>
        <time>2019-07-27T08:28:41Z</time>
      </trkpt>
      <trkpt lat="43.20962" lon="6.53742">
        <ele>311.593323</ele>
        <time>2019-07-27T08:29:04Z</time>
      </trkpt>
      <trkpt lat="43.20915" lon="6.53738">
        <ele>312.015564</ele>
        <time>2019-07-27T08:29:22Z</time>
      </trkpt>
      <trkpt lat="43.20871" lon="6.53711">
        <ele>312.249756</ele>
        <time>2019-07-27T08:29:39Z</time>
      </trkpt>
      <trkpt lat="43.20832" lon="6.53676">
        <ele>315.211914</ele>
        <time>2019-07-27T08:30:03Z</time>
      </trkpt>
      <trkpt lat="43.20791" lon="6.53652">
        <ele>316.565887</ele>
        <time>2019-07-27T08:30:24Z</time>
      </trkpt>
      <trkpt lat="43.20747" lon="6.53624">
        <ele>313.256775</ele>
        <time>2019-07-27T08:30:38Z</time>
      </trkpt>
      <trkpt lat="43.20715" lon="6.53574">
        <ele>307.738739</ele>
        <time>2019-07-27T08:30:50Z</time>
      </trkpt>
      <trkpt lat="43.20704" lon="6.53511">
        <ele>305.353516</ele>
        <time>2019-07-27T08:31:00Z</time>
      </trkpt>
      <trkpt lat="43.20687" lon="6.53452">
        <ele>301.394836</ele>
        <time>2019-07-27T08:31:07Z</time>
      </trkpt>
      <trkpt lat="43.20659" lon="6.53402">
        <ele>294.494995</ele>
        <time>2019-07-27T08:31:18Z</time>
      </trkpt>
      <trkpt lat="43.20638" lon="6.53343">
        <ele>289.57196</ele>
        <time>2019-07-27T08:31:29Z</time>
      </trkpt>
      <trkpt lat="43.20635" lon="6.5328">
        <ele>290.527161</ele>
        <time>2019-07-27T08:31:39Z</time>
      </trkpt>
      <trkpt lat="43.20632" lon="6.53224">
        <ele>292.073883</ele>
        <time>2019-07-27T08:31:52Z</time>
      </trkpt>
      <trkpt lat="43.20594" lon="6.53192">
        <ele>280.591248</ele>
        <time>2019-07-27T08:32:07Z</time>
      </trkpt>
      <trkpt lat="43.2058" lon="6.53126">
        <ele>279.449432</ele>
        <time>2019-07-27T08:32:24Z</time>
      </trkpt>
      <trkpt lat="43.20569" lon="6.53065">
        <ele>281.065002</ele>
        <time>2019-07-27T08:32:42Z</time>
      </trkpt>
      <trkpt lat="43.20539" lon="6.53022">
        <ele>278.824066</ele>
        <time>2019-07-27T08:33:13Z</time>
      </trkpt>
      <trkpt lat="43.20513" lon="6.52971">
        <ele>280.620178</ele>
        <time>2019-07-27T08:33:47Z</time>
      </trkpt>
      <trkpt lat="43.20506" lon="6.5291">
        <ele>287.141541</ele>
        <time>2019-07-27T08:34:22Z</time>
      </trkpt>
      <trkpt lat="43.20507" lon="6.52847">
        <ele>289.221436</ele>
        <time>2019-07-27T08:35:01Z</time>
      </trkpt>
      <trkpt lat="43.20535" lon="6.52794">
        <ele>292.998566</ele>
        <time>2019-07-27T08:35:10Z</time>
      </trkpt>
      <trkpt lat="43.20561" lon="6.52741">
        <ele>295.463501</ele>
        <time>2019-07-27T08:35:31Z</time>
      </trkpt>
      <trkpt lat="43.20592" lon="6.52694">
        <ele>299.940002</ele>
        <time>2019-07-27T08:35:44Z</time>
      </trkpt>
      <trkpt lat="43.20617" lon="6.52639">
        <ele>301.649994</ele>
        <time>2019-07-27T08:36:02Z</time>
      </trkpt>
      <trkpt lat="43.20635" lon="6.52583">
        <ele>303.861908</ele>
        <time>2019-07-27T08:36:23Z</time>
      </trkpt>
      <trkpt lat="43.20643" lon="6.52521">
        <ele>304.886261</ele>
        <time>2019-07-27T08:36:45Z</time>
      </trkpt>
      <trkpt lat="43.20639" lon="6.5246">
        <ele>303.438324</ele>
        <time>2019-07-27T08:37:07Z</time>
      </trkpt>
      <trkpt lat="43.20647" lon="6.52397">
        <ele>311.128601</ele>
        <time>2019-07-27T08:37:35Z</time>
      </trkpt>
      <trkpt lat="43.20668" lon="6.52342">
        <ele>326.910614</ele>
        <time>2019-07-27T08:38:50Z</time>
      </trkpt>
      <trkpt lat="43.20673" lon="6.52281">
        <ele>330.403381</ele>
        <time>2019-07-27T08:39:27Z</time>
      </trkpt>
      <trkpt lat="43.20657" lon="6.5222">
        <ele>329.808868</ele>
        <time>2019-07-27T08:41:48Z</time>
      </trkpt>
      <trkpt lat="43.20636" lon="6.52167">
        <ele>334.113037</ele>
        <time>2019-07-27T08:42:14Z</time>
      </trkpt>
      <trkpt lat="43.20631" lon="6.52149">
        <ele>335.61261</ele>
        <time>2019-07-27T08:45:07Z</time>
      </trkpt>
      <trkpt lat="43.20598" lon="6.52102">
        <ele>339.09671</ele>
        <time>2019-07-27T08:45:23Z</time>
      </trkpt>
      <trkpt lat="43.20561" lon="6.52063">
        <ele>337.247101</ele>
        <time>2019-07-27T08:45:37Z</time>
      </trkpt>
      <trkpt lat="43.20527" lon="6.52013">
        <ele>344.394379</ele>
        <time>2019-07-27T08:45:49Z</time>
      </trkpt>
      <trkpt lat="43.20485" lon="6.51983">
        <ele>340.980865</ele>
        <time>2019-07-27T08:46:02Z</time>
      </trkpt>
      <trkpt lat="43.20448" lon="6.5195">
        <ele>344.97525</ele>
        <time>2019-07-27T08:46:15Z</time>
      </trkpt>
      <trkpt lat="43.20403" lon="6.51947">
        <ele>338.110229</ele>
        <time>2019-07-27T08:46:29Z</time>
      </trkpt>
      <trkpt lat="43.20356" lon="6.51949">
        <ele>334.75354</ele>
        <time>2019-07-27T08:46:41Z</time>
      </trkpt>
      <trkpt lat="43.20307" lon="6.51941">
        <ele>331.636719</ele>
        <time>2019-07-27T08:46:53Z</time>
      </trkpt>
      <trkpt lat="43.20266" lon="6.51909">
        <ele>333.818176</ele>
        <time>2019-07-27T08:47:02Z</time>
      </trkpt>
      <trkpt lat="43.2022" lon="6.51906">
        <ele>331.842316</ele>
        <time>2019-07-27T08:47:11Z</time>
      </trkpt>
      <trkpt lat="43.20174" lon="6.5192">
        <ele>328.297485</ele>
        <time>2019-07-27T08:47:22Z</time>
      </trkpt>
      <trkpt lat="43.20129" lon="6.51921">
        <ele>328.816071</ele>
        <time>2019-07-27T08:47:33Z</time>
      </trkpt>
      <trkpt lat="43.20083" lon="6.51919">
        <ele>325.252502</ele>
        <time>2019-07-27T08:47:43Z</time>
      </trkpt>
      <trkpt lat="43.2004" lon="6.51897">
        <ele>324.684387</ele>
        <time>2019-07-27T08:47:54Z</time>
      </trkpt>
      <trkpt lat="43.19995" lon="6.51867">
        <ele>326.089996</ele>
        <time>2019-07-27T08:48:06Z</time>
      </trkpt>
      <trkpt lat="43.1995" lon="6.51864">
        <ele>318.799774</ele>
        <time>2019-07-27T08:48:16Z</time>
      </trkpt>
      <trkpt lat="43.19915" lon="6.51824">
        <ele>320.363037</ele>
        <time>2019-07-27T08:48:26Z</time>
      </trkpt>
      <trkpt lat="43.19895" lon="6.51767">
        <ele>324.824921</ele>
        <time>2019-07-27T08:48:38Z</time>
      </trkpt>
      <trkpt lat="43.19871" lon="6.51713">
        <ele>327.230133</ele>
        <time>2019-07-27T08:48:58Z</time>
      </trkpt>
      <trkpt lat="43.19842" lon="6.51667">
        <ele>323.792206</ele>
        <time>2019-07-27T08:49:16Z</time>
      </trkpt>
      <trkpt lat="43.19822" lon="6.51607">
        <ele>328.031555</ele>
        <time>2019-07-27T08:49:31Z</time>
      </trkpt>
      <trkpt lat="43.19794" lon="6.51554">
        <ele>327.828003</ele>
        <time>2019-07-27T08:49:44Z</time>
      </trkpt>
      <trkpt lat="43.19772" lon="6.51499">
        <ele>333.194031</ele>
        <time>2019-07-27T08:49:58Z</time>
      </trkpt>
      <trkpt lat="43.19736" lon="6.51468">
        <ele>334.834991</ele>
        <time>2019-07-27T08:50:12Z</time>
      </trkpt>
      <trkpt lat="43.19709" lon="6.51414">
        <ele>336.173492</ele>
        <time>2019-07-27T08:50:28Z</time>
      </trkpt>
      <trkpt lat="43.19704" lon="6.51353">
        <ele>341.548187</ele>
        <time>2019-07-27T08:50:52Z</time>
      </trkpt>
      <trkpt lat="43.19693" lon="6.51292">
        <ele>341.617767</ele>
        <time>2019-07-27T08:51:14Z</time>
      </trkpt>
      <trkpt lat="43.19675" lon="6.51234">
        <ele>340.455322</ele>
        <time>2019-07-27T08:51:36Z</time>
      </trkpt>
      <trkpt lat="43.19655" lon="6.51191">
        <ele>342.341003</ele>
        <time>2019-07-27T08:53:18Z</time>
      </trkpt>
      <trkpt lat="43.1961" lon="6.5119">
        <ele>344.080292</ele>
        <time>2019-07-27T08:53:36Z</time>
      </trkpt>
      <trkpt lat="43.19565" lon="6.51192">
        <ele>344.926086</ele>
        <time>2019-07-27T08:53:53Z</time>
      </trkpt>
      <trkpt lat="43.19519" lon="6.51187">
        <ele>345.740631</ele>
        <time>2019-07-27T08:54:12Z</time>
      </trkpt>
      <trkpt lat="43.19474" lon="6.51174">
        <ele>349.246246</ele>
        <time>2019-07-27T08:54:38Z</time>
      </trkpt>
      <trkpt lat="43.1943" lon="6.51153">
        <ele>357.298096</ele>
        <time>2019-07-27T08:55:05Z</time>
      </trkpt>
      <trkpt lat="43.19386" lon="6.51149">
        <ele>355.146484</ele>
        <time>2019-07-27T08:55:29Z</time>
      </trkpt>
      <trkpt lat="43.19339" lon="6.51149">
        <ele>352.598511</ele>
        <time>2019-07-27T08:55:52Z</time>
      </trkpt>
      <trkpt lat="43.19293" lon="6.5113">
        <ele>360.977722</ele>
        <time>2019-07-27T08:56:16Z</time>
      </trkpt>
      <trkpt lat="43.19247" lon="6.51133">
        <ele>364.257507</ele>
        <time>2019-07-27T08:56:38Z</time>
      </trkpt>
      <trkpt lat="43.19203" lon="6.51132">
        <ele>372.211731</ele>
        <time>2019-07-27T08:57:03Z</time>
      </trkpt>
      <trkpt lat="43.1916" lon="6.51131">
        <ele>379.567505</ele>
        <time>2019-07-27T08:57:27Z</time>
      </trkpt>
      <trkpt lat="43.19115" lon="6.51157">
        <ele>372.793793</ele>
        <time>2019-07-27T08:57:45Z</time>
      </trkpt>
      <trkpt lat="43.19071" lon="6.51169">
        <ele>371.037262</ele>
        <time>2019-07-27T08:57:59Z</time>
      </trkpt>
      <trkpt lat="43.19025" lon="6.51161">
        <ele>370.705475</ele>
        <time>2019-07-27T08:58:19Z</time>
      </trkpt>
      <trkpt lat="43.18986" lon="6.51124">
        <ele>378.943146</ele>
        <time>2019-07-27T08:58:38Z</time>
      </trkpt>
      <trkpt lat="43.18943" lon="6.51098">
        <ele>379.79126</ele>
        <time>2019-07-27T08:58:56Z</time>
      </trkpt>
      <trkpt lat="43.18902" lon="6.51068">
        <ele>379.744995</ele>
        <time>2019-07-27T08:59:15Z</time>
      </trkpt>
      <trkpt lat="43.18859" lon="6.51046">
        <ele>374.821899</ele>
        <time>2019-07-27T08:59:30Z</time>
      </trkpt>
      <trkpt lat="43.18826" lon="6.51005">
        <ele>381.811279</ele>
        <time>2019-07-27T08:59:47Z</time>
      </trkpt>
      <trkpt lat="43.18792" lon="6.50964">
        <ele>385.533752</ele>
        <time>2019-07-27T09:00:08Z</time>
      </trkpt>
      <trkpt lat="43.1877" lon="6.50906">
        <ele>396.112488</ele>
        <time>2019-07-27T09:00:33Z</time>
      </trkpt>
      <trkpt lat="43.18737" lon="6.50864">
        <ele>395.475525</ele>
        <time>2019-07-27T09:00:56Z</time>
      </trkpt>
      <trkpt lat="43.18704" lon="6.50824">
        <ele>393.40271</ele>
        <time>2019-07-27T09:01:20Z</time>
      </trkpt>
      <trkpt lat="43.18666" lon="6.50788">
        <ele>387.934631</ele>
        <time>2019-07-27T09:01:41Z</time>
      </trkpt>
      <trkpt lat="43.18636" lon="6.50744">
        <ele>387.936096</ele>
        <time>2019-07-27T09:02:04Z</time>
      </trkpt>
      <trkpt lat="43.18622" lon="6.50684">
        <ele>400.179413</ele>
        <time>2019-07-27T09:02:37Z</time>
      </trkpt>
      <trkpt lat="43.18592" lon="6.50644">
        <ele>400.774994</ele>
        <time>2019-07-27T09:03:08Z</time>
      </trkpt>
      <trkpt lat="43.18566" lon="6.50594">
        <ele>407.475128</ele>
        <time>2019-07-27T09:03:42Z</time>
      </trkpt>
      <trkpt lat="43.18549" lon="6.5054">
        <ele>408.317596</ele>
        <time>2019-07-27T09:07:39Z</time>
      </trkpt>
      <trkpt lat="43.18581" lon="6.50495">
        <ele>419.602295</ele>
        <time>2019-07-27T09:08:56Z</time>
      </trkpt>
      <trkpt lat="43.18602" lon="6.50437">
        <ele>421.429535</ele>
        <time>2019-07-27T09:09:27Z</time>
      </trkpt>
      <trkpt lat="43.18625" lon="6.50387">
        <ele>425.566345</ele>
        <time>2019-07-27T09:09:58Z</time>
      </trkpt>
      <trkpt lat="43.18648" lon="6.50334">
        <ele>431.56369</ele>
        <time>2019-07-27T09:10:28Z</time>
      </trkpt>
      <trkpt lat="43.18634" lon="6.50279">
        <ele>432.072021</ele>
        <time>2019-07-27T09:10:56Z</time>
      </trkpt>
      <trkpt lat="43.18641" lon="6.5022">
        <ele>439.959991</ele>
        <time>2019-07-27T09:11:31Z</time>
      </trkpt>
      <trkpt lat="43.18618" lon="6.50169">
        <ele>442.102509</ele>
        <time>2019-07-27T09:12:04Z</time>
      </trkpt>
      <trkpt lat="43.18587" lon="6.50123">
        <ele>442.990601</ele>
        <time>2019-07-27T09:12:28Z</time>
      </trkpt>
      <trkpt lat="43.18567" lon="6.50066">
        <ele>449.504517</ele>
        <time>2019-07-27T09:12:57Z</time>
      </trkpt>
      <trkpt lat="43.18535" lon="6.50024">
        <ele>446.364075</ele>
        <time>2019-07-27T09:13:24Z</time>
      </trkpt>
      <trkpt lat="43.18507" lon="6.49976">
        <ele>451.508575</ele>
        <time>2019-07-27T09:13:50Z</time>
      </trkpt>
      <trkpt lat="43.18473" lon="6.49937">
        <ele>454.115997</ele>
        <time>2019-07-27T09:14:15Z</time>
      </trkpt>
      <trkpt lat="43.18438" lon="6.49901">
        <ele>460.893433</ele>
        <time>2019-07-27T09:14:46Z</time>
      </trkpt>
      <trkpt lat="43.18412" lon="6.49855">
        <ele>468.163696</ele>
        <time>2019-07-27T09:15:32Z</time>
      </trkpt>
      <trkpt lat="43.18368" lon="6.4986">
        <ele>468.406738</ele>
        <time>2019-07-27T09:15:59Z</time>
      </trkpt>
      <trkpt lat="43.18322" lon="6.49882">
        <ele>473.893372</ele>
        <time>2019-07-27T09:16:20Z</time>
      </trkpt>
      <trkpt lat="43.1828" lon="6.49854">
        <ele>469.234375</ele>
        <time>2019-07-27T09:16:34Z</time>
      </trkpt>
      <trkpt lat="43.18237" lon="6.49855">
        <ele>471.571289</ele>
        <time>2019-07-27T09:17:39Z</time>
      </trkpt>
      <trkpt lat="43.18188" lon="6.49842">
        <ele>467.657501</ele>
        <time>2019-07-27T09:17:47Z</time>
      </trkpt>
      <trkpt lat="43.18144" lon="6.49821">
        <ele>463.016388</ele>
        <time>2019-07-27T09:17:54Z</time>
      </trkpt>
      <trkpt lat="43.18097" lon="6.49803">
        <ele>459.870087</ele>
        <time>2019-07-27T09:18:01Z</time>
      </trkpt>
      <trkpt lat="43.18049" lon="6.49803">
        <ele>455.517029</ele>
        <time>2019-07-27T09:18:07Z</time>
      </trkpt>
      <trkpt lat="43.18007" lon="6.49819">
        <ele>448.569092</ele>
        <time>2019-07-27T09:18:15Z</time>
      </trkpt>
      <trkpt lat="43.18014" lon="6.49877">
        <ele>449.20343</ele>
        <time>2019-07-27T09:18:23Z</time>
      </trkpt>
      <trkpt lat="43.18024" lon="6.49938">
        <ele>447.58725</ele>
        <time>2019-07-27T09:18:30Z</time>
      </trkpt>
      <trkpt lat="43.1803" lon="6.50004">
        <ele>446.494171</ele>
        <time>2019-07-27T09:18:37Z</time>
      </trkpt>
      <trkpt lat="43.18019" lon="6.50071">
        <ele>447.211151</ele>
        <time>2019-07-27T09:18:43Z</time>
      </trkpt>
      <trkpt lat="43.17986" lon="6.50114">
        <ele>441.29126</ele>
        <time>2019-07-27T09:18:49Z</time>
      </trkpt>
      <trkpt lat="43.1796" lon="6.50162">
        <ele>434.940796</ele>
        <time>2019-07-27T09:18:55Z</time>
      </trkpt>
      <trkpt lat="43.17952" lon="6.50221">
        <ele>428.901703</ele>
        <time>2019-07-27T09:19:04Z</time>
      </trkpt>
      <trkpt lat="43.17947" lon="6.50156">
        <ele>428.439758</ele>
        <time>2019-07-27T09:19:16Z</time>
      </trkpt>
      <trkpt lat="43.17962" lon="6.50087">
        <ele>425.65921</ele>
        <time>2019-07-27T09:19:23Z</time>
      </trkpt>
      <trkpt lat="43.17979" lon="6.50027">
        <ele>423.15274</ele>
        <time>2019-07-27T09:19:30Z</time>
      </trkpt>
      <trkpt lat="43.17976" lon="6.49959">
        <ele>420.543518</ele>
        <time>2019-07-27T09:19:39Z</time>
      </trkpt>
      <trkpt lat="43.17939" lon="6.49919">
        <ele>408.183411</ele>
        <time>2019-07-27T09:19:48Z</time>
      </trkpt>
      <trkpt lat="43.17929" lon="6.49856">
        <ele>408.667999</ele>
        <time>2019-07-27T09:20:02Z</time>
      </trkpt>
      <trkpt lat="43.17902" lon="6.49804">
        <ele>401.251038</ele>
        <time>2019-07-27T09:20:14Z</time>
      </trkpt>
      <trkpt lat="43.17882" lon="6.49748">
        <ele>397.339233</ele>
        <time>2019-07-27T09:20:23Z</time>
      </trkpt>
      <trkpt lat="43.17859" lon="6.49688">
        <ele>393.396851</ele>
        <time>2019-07-27T09:20:30Z</time>
      </trkpt>
      <trkpt lat="43.17824" lon="6.49654">
        <ele>385.169159</ele>
        <time>2019-07-27T09:20:38Z</time>
      </trkpt>
      <trkpt lat="43.17781" lon="6.49634">
        <ele>371.089661</ele>
        <time>2019-07-27T09:20:50Z</time>
      </trkpt>
      <trkpt lat="43.17759" lon="6.49564">
        <ele>375.566528</ele>
        <time>2019-07-27T09:23:04Z</time>
      </trkpt>
      <trkpt lat="43.17726" lon="6.4952">
        <ele>370.373199</ele>
        <time>2019-07-27T09:23:11Z</time>
      </trkpt>
      <trkpt lat="43.177" lon="6.49461">
        <ele>371.245392</ele>
        <time>2019-07-27T09:23:21Z</time>
      </trkpt>
      <trkpt lat="43.17658" lon="6.49444">
        <ele>362.138367</ele>
        <time>2019-07-27T09:23:29Z</time>
      </trkpt>
      <trkpt lat="43.17622" lon="6.49403">
        <ele>357.893097</ele>
        <time>2019-07-27T09:23:38Z</time>
      </trkpt>
      <trkpt lat="43.17622" lon="6.49338">
        <ele>357.062988</ele>
        <time>2019-07-27T09:23:44Z</time>
      </trkpt>
      <trkpt lat="43.17603" lon="6.49273">
        <ele>348.867828</ele>
        <time>2019-07-27T09:23:52Z</time>
      </trkpt>
      <trkpt lat="43.17582" lon="6.4921">
        <ele>343.799194</ele>
        <time>2019-07-27T09:23:59Z</time>
      </trkpt>
      <trkpt lat="43.1757" lon="6.49145">
        <ele>340.643829</ele>
        <time>2019-07-27T09:24:05Z</time>
      </trkpt>
      <trkpt lat="43.1756" lon="6.49082">
        <ele>336.30719</ele>
        <time>2019-07-27T09:24:10Z</time>
      </trkpt>
      <trkpt lat="43.17549" lon="6.49015">
        <ele>329.919861</ele>
        <time>2019-07-27T09:24:16Z</time>
      </trkpt>
      <trkpt lat="43.17539" lon="6.48949">
        <ele>326.848053</ele>
        <time>2019-07-27T09:24:22Z</time>
      </trkpt>
      <trkpt lat="43.1753" lon="6.48885">
        <ele>325.131195</ele>
        <time>2019-07-27T09:24:29Z</time>
      </trkpt>
      <trkpt lat="43.17514" lon="6.48822">
        <ele>322.269867</ele>
        <time>2019-07-27T09:24:39Z</time>
      </trkpt>
      <trkpt lat="43.1748" lon="6.48772">
        <ele>319.658386</ele>
        <time>2019-07-27T09:24:46Z</time>
      </trkpt>
      <trkpt lat="43.1745" lon="6.48723">
        <ele>318.053711</ele>
        <time>2019-07-27T09:24:52Z</time>
      </trkpt>
      <trkpt lat="43.17435" lon="6.48654">
        <ele>315.721588</ele>
        <time>2019-07-27T09:24:59Z</time>
      </trkpt>
      <trkpt lat="43.17428" lon="6.48591">
        <ele>312.26532</ele>
        <time>2019-07-27T09:25:05Z</time>
      </trkpt>
      <trkpt lat="43.17419" lon="6.48522">
        <ele>309.686462</ele>
        <time>2019-07-27T09:25:12Z</time>
      </trkpt>
      <trkpt lat="43.17414" lon="6.48463">
        <ele>309.790588</ele>
        <time>2019-07-27T09:25:59Z</time>
      </trkpt>
      <trkpt lat="43.17409" lon="6.48397">
        <ele>308.345551</ele>
        <time>2019-07-27T09:26:09Z</time>
      </trkpt>
      <trkpt lat="43.17404" lon="6.48325">
        <ele>306.524933</ele>
        <time>2019-07-27T09:26:17Z</time>
      </trkpt>
      <trkpt lat="43.17399" lon="6.48263">
        <ele>304.554504</ele>
        <time>2019-07-27T09:26:23Z</time>
      </trkpt>
      <trkpt lat="43.17363" lon="6.4823">
        <ele>305.792206</ele>
        <time>2019-07-27T09:26:30Z</time>
      </trkpt>
      <trkpt lat="43.17316" lon="6.48233">
        <ele>302.162964</ele>
        <time>2019-07-27T09:26:37Z</time>
      </trkpt>
      <trkpt lat="43.17277" lon="6.48194">
        <ele>303.994995</ele>
        <time>2019-07-27T09:26:46Z</time>
      </trkpt>
      <trkpt lat="43.17238" lon="6.48171">
        <ele>302.907745</ele>
        <time>2019-07-27T09:26:57Z</time>
      </trkpt>
      <trkpt lat="43.17209" lon="6.48128">
        <ele>302.440063</ele>
        <time>2019-07-27T09:27:10Z</time>
      </trkpt>
      <trkpt lat="43.17196" lon="6.48068">
        <ele>307.257507</ele>
        <time>2019-07-27T09:27:23Z</time>
      </trkpt>
      <trkpt lat="43.17161" lon="6.48024">
        <ele>304.599945</ele>
        <time>2019-07-27T09:27:37Z</time>
      </trkpt>
      <trkpt lat="43.17123" lon="6.47984">
        <ele>303.860138</ele>
        <time>2019-07-27T09:27:49Z</time>
      </trkpt>
      <trkpt lat="43.17086" lon="6.47945">
        <ele>304.144806</ele>
        <time>2019-07-27T09:28:01Z</time>
      </trkpt>
      <trkpt lat="43.17048" lon="6.4791">
        <ele>305.08609</ele>
        <time>2019-07-27T09:28:11Z</time>
      </trkpt>
      <trkpt lat="43.17006" lon="6.47891">
        <ele>305.192291</ele>
        <time>2019-07-27T09:28:23Z</time>
      </trkpt>
      <trkpt lat="43.1696" lon="6.47914">
        <ele>298.49884</ele>
        <time>2019-07-27T09:28:33Z</time>
      </trkpt>
      <trkpt lat="43.16913" lon="6.4793">
        <ele>297.906219</ele>
        <time>2019-07-27T09:28:42Z</time>
      </trkpt>
      <trkpt lat="43.16866" lon="6.47934">
        <ele>299.082947</ele>
        <time>2019-07-27T09:28:49Z</time>
      </trkpt>
      <trkpt lat="43.1682" lon="6.47944">
        <ele>298.070313</ele>
        <time>2019-07-27T09:28:56Z</time>
      </trkpt>
      <trkpt lat="43.1678" lon="6.47966">
        <ele>294.881866</ele>
        <time>2019-07-27T09:29:11Z</time>
      </trkpt>
      <trkpt lat="43.1676" lon="6.47916">
        <ele>294.192383</ele>
        <time>2019-07-27T09:29:26Z</time>
      </trkpt>
      <trkpt lat="43.16781" lon="6.47862">
        <ele>295.250305</ele>
        <time>2019-07-27T09:29:43Z</time>
      </trkpt>
      <trkpt lat="43.16803" lon="6.47806">
        <ele>293.794464</ele>
        <time>2019-07-27T09:29:58Z</time>
      </trkpt>
      <trkpt lat="43.16812" lon="6.47744">
        <ele>287.837585</ele>
        <time>2019-07-27T09:30:13Z</time>
      </trkpt>
      <trkpt lat="43.16829" lon="6.4768">
        <ele>284.025208</ele>
        <time>2019-07-27T09:30:26Z</time>
      </trkpt>
      <trkpt lat="43.16851" lon="6.47619">
        <ele>280.244171</ele>
        <time>2019-07-27T09:30:34Z</time>
      </trkpt>
      <trkpt lat="43.16871" lon="6.4756">
        <ele>272.790009</ele>
        <time>2019-07-27T09:30:41Z</time>
      </trkpt>
      <trkpt lat="43.16891" lon="6.47504">
        <ele>267.563629</ele>
        <time>2019-07-27T09:30:55Z</time>
      </trkpt>
      <trkpt lat="43.16889" lon="6.47444">
        <ele>268.916809</ele>
        <time>2019-07-27T09:31:21Z</time>
      </trkpt>
      <trkpt lat="43.16908" lon="6.4751">
        <ele>267.152008</ele>
        <time>2019-07-27T09:40:48Z</time>
      </trkpt>
      <trkpt lat="43.16934" lon="6.4756">
        <ele>266.125244</ele>
        <time>2019-07-27T09:40:59Z</time>
      </trkpt>
      <trkpt lat="43.16957" lon="6.47614">
        <ele>269.035126</ele>
        <time>2019-07-27T09:41:06Z</time>
      </trkpt>
      <trkpt lat="43.16998" lon="6.47614">
        <ele>267.822662</ele>
        <time>2019-07-27T09:41:13Z</time>
      </trkpt>
      <trkpt lat="43.17019" lon="6.47553">
        <ele>257.588715</ele>
        <time>2019-07-27T09:41:20Z</time>
      </trkpt>
      <trkpt lat="43.17061" lon="6.47526">
        <ele>252.652603</ele>
        <time>2019-07-27T09:41:28Z</time>
      </trkpt>
      <trkpt lat="43.17109" lon="6.47524">
        <ele>247.053391</ele>
        <time>2019-07-27T09:41:36Z</time>
      </trkpt>
      <trkpt lat="43.17154" lon="6.47559">
        <ele>250.689896</ele>
        <time>2019-07-27T09:41:43Z</time>
      </trkpt>
      <trkpt lat="43.17187" lon="6.47546">
        <ele>252.524796</ele>
        <time>2019-07-27T09:41:51Z</time>
      </trkpt>
      <trkpt lat="43.17168" lon="6.47478">
        <ele>242.939926</ele>
        <time>2019-07-27T09:41:58Z</time>
      </trkpt>
      <trkpt lat="43.1716" lon="6.47416">
        <ele>234.482498</ele>
        <time>2019-07-27T09:42:05Z</time>
      </trkpt>
      <trkpt lat="43.17194" lon="6.47375">
        <ele>235.085052</ele>
        <time>2019-07-27T09:42:12Z</time>
      </trkpt>
      <trkpt lat="43.17224" lon="6.47327">
        <ele>233.928268</ele>
        <time>2019-07-27T09:42:18Z</time>
      </trkpt>
      <trkpt lat="43.17238" lon="6.47263">
        <ele>229.108505</ele>
        <time>2019-07-27T09:42:24Z</time>
      </trkpt>
      <trkpt lat="43.17253" lon="6.47204">
        <ele>224.609268</ele>
        <time>2019-07-27T09:42:30Z</time>
      </trkpt>
      <trkpt lat="43.17281" lon="6.47148">
        <ele>224.099884</ele>
        <time>2019-07-27T09:42:38Z</time>
      </trkpt>
      <trkpt lat="43.17304" lon="6.47085">
        <ele>220.919708</ele>
        <time>2019-07-27T09:42:45Z</time>
      </trkpt>
      <trkpt lat="43.17329" lon="6.4703">
        <ele>217.324997</ele>
        <time>2019-07-27T09:42:51Z</time>
      </trkpt>
      <trkpt lat="43.17319" lon="6.47019">
        <ele>211.377502</ele>
        <time>2019-07-27T09:43:04Z</time>
      </trkpt>
      <trkpt lat="43.17292" lon="6.47078">
        <ele>215.476563</ele>
        <time>2019-07-27T09:43:17Z</time>
      </trkpt>
      <trkpt lat="43.17263" lon="6.47128">
        <ele>214.558914</ele>
        <time>2019-07-27T09:43:26Z</time>
      </trkpt>
      <trkpt lat="43.17236" lon="6.47179">
        <ele>213.866364</ele>
        <time>2019-07-27T09:43:36Z</time>
      </trkpt>
      <trkpt lat="43.17206" lon="6.47211">
        <ele>213.436142</ele>
        <time>2019-07-27T09:43:46Z</time>
      </trkpt>
      <trkpt lat="43.17215" lon="6.47151">
        <ele>210.048508</ele>
        <time>2019-07-27T09:43:55Z</time>
      </trkpt>
      <trkpt lat="43.17256" lon="6.47123">
        <ele>211.164276</ele>
        <time>2019-07-27T09:44:05Z</time>
      </trkpt>
      <trkpt lat="43.17277" lon="6.47068">
        <ele>209.138672</ele>
        <time>2019-07-27T09:44:14Z</time>
      </trkpt>
      <trkpt lat="43.17298" lon="6.47011">
        <ele>202.822495</ele>
        <time>2019-07-27T09:44:21Z</time>
      </trkpt>
      <trkpt lat="43.17315" lon="6.46955">
        <ele>195.296539</ele>
        <time>2019-07-27T09:44:29Z</time>
      </trkpt>
      <trkpt lat="43.1736" lon="6.46931">
        <ele>197.430649</ele>
        <time>2019-07-27T09:44:38Z</time>
      </trkpt>
      <trkpt lat="43.17402" lon="6.46905">
        <ele>194.344223</ele>
        <time>2019-07-27T09:44:45Z</time>
      </trkpt>
      <trkpt lat="43.17452" lon="6.46893">
        <ele>192.461746</ele>
        <time>2019-07-27T09:44:52Z</time>
      </trkpt>
      <trkpt lat="43.17497" lon="6.46876">
        <ele>187.859116</ele>
        <time>2019-07-27T09:44:58Z</time>
      </trkpt>
      <trkpt lat="43.17539" lon="6.46902">
        <ele>198.720734</ele>
        <time>2019-07-27T09:45:05Z</time>
      </trkpt>
      <trkpt lat="43.17559" lon="6.46855">
        <ele>191.029816</ele>
        <time>2019-07-27T09:45:12Z</time>
      </trkpt>
      <trkpt lat="43.1756" lon="6.46787">
        <ele>177.570175</ele>
        <time>2019-07-27T09:45:19Z</time>
      </trkpt>
      <trkpt lat="43.17592" lon="6.46759">
        <ele>174.407547</ele>
        <time>2019-07-27T09:45:27Z</time>
      </trkpt>
      <trkpt lat="43.1764" lon="6.46775">
        <ele>174.53598</ele>
        <time>2019-07-27T09:45:34Z</time>
      </trkpt>
      <trkpt lat="43.17687" lon="6.46798">
        <ele>174.949722</ele>
        <time>2019-07-27T09:45:40Z</time>
      </trkpt>
      <trkpt lat="43.17738" lon="6.46827">
        <ele>175.391754</ele>
        <time>2019-07-27T09:45:46Z</time>
      </trkpt>
      <trkpt lat="43.17784" lon="6.4685">
        <ele>171.443619</ele>
        <time>2019-07-27T09:45:51Z</time>
      </trkpt>
      <trkpt lat="43.1783" lon="6.46862">
        <ele>157.887024</ele>
        <time>2019-07-27T09:45:57Z</time>
      </trkpt>
      <trkpt lat="43.17847" lon="6.46916">
        <ele>156.750931</ele>
        <time>2019-07-27T09:46:04Z</time>
      </trkpt>
      <trkpt lat="43.17878" lon="6.46978">
        <ele>157.054993</ele>
        <time>2019-07-27T09:46:11Z</time>
      </trkpt>
      <trkpt lat="43.17913" lon="6.47019">
        <ele>152.740005</ele>
        <time>2019-07-27T09:46:17Z</time>
      </trkpt>
      <trkpt lat="43.17946" lon="6.47062">
        <ele>151.718475</ele>
        <time>2019-07-27T09:46:23Z</time>
      </trkpt>
      <trkpt lat="43.17986" lon="6.47096">
        <ele>138.687027</ele>
        <time>2019-07-27T09:46:30Z</time>
      </trkpt>
      <trkpt lat="43.17981" lon="6.47163">
        <ele>142.401001</ele>
        <time>2019-07-27T09:46:37Z</time>
      </trkpt>
      <trkpt lat="43.18008" lon="6.47207">
        <ele>149.436844</ele>
        <time>2019-07-27T09:46:45Z</time>
      </trkpt>
      <trkpt lat="43.18031" lon="6.47166">
        <ele>149.367004</ele>
        <time>2019-07-27T09:46:56Z</time>
      </trkpt>
      <trkpt lat="43.1806" lon="6.47104">
        <ele>144.682495</ele>
        <time>2019-07-27T09:47:04Z</time>
      </trkpt>
      <trkpt lat="43.1807" lon="6.47041">
        <ele>135.914764</ele>
        <time>2019-07-27T09:47:10Z</time>
      </trkpt>
      <trkpt lat="43.18083" lon="6.46977">
        <ele>132.343704</ele>
        <time>2019-07-27T09:47:16Z</time>
      </trkpt>
      <trkpt lat="43.18102" lon="6.46918">
        <ele>124.777298</ele>
        <time>2019-07-27T09:47:23Z</time>
      </trkpt>
      <trkpt lat="43.18141" lon="6.46953">
        <ele>126.658501</ele>
        <time>2019-07-27T09:47:30Z</time>
      </trkpt>
      <trkpt lat="43.18185" lon="6.46979">
        <ele>121.080002</ele>
        <time>2019-07-27T09:47:36Z</time>
      </trkpt>
      <trkpt lat="43.18224" lon="6.47014">
        <ele>128.576874</ele>
        <time>2019-07-27T09:47:42Z</time>
      </trkpt>
      <trkpt lat="43.1827" lon="6.46983">
        <ele>124.525642</ele>
        <time>2019-07-27T09:47:49Z</time>
      </trkpt>
      <trkpt lat="43.18315" lon="6.46965">
        <ele>120.346786</ele>
        <time>2019-07-27T09:47:56Z</time>
      </trkpt>
      <trkpt lat="43.1836" lon="6.4697">
        <ele>118.669853</ele>
        <time>2019-07-27T09:48:02Z</time>
      </trkpt>
      <trkpt lat="43.18405" lon="6.46952">
        <ele>107.962051</ele>
        <time>2019-07-27T09:48:09Z</time>
      </trkpt>
      <trkpt lat="43.18441" lon="6.46983">
        <ele>110.077316</ele>
        <time>2019-07-27T09:48:19Z</time>
      </trkpt>
      <trkpt lat="43.18487" lon="6.46998">
        <ele>105.364487</ele>
        <time>2019-07-27T09:48:26Z</time>
      </trkpt>
      <trkpt lat="43.18531" lon="6.47019">
        <ele>101.071678</ele>
        <time>2019-07-27T09:48:32Z</time>
      </trkpt>
      <trkpt lat="43.18574" lon="6.47045">
        <ele>90.954948</ele>
        <time>2019-07-27T09:48:38Z</time>
      </trkpt>
      <trkpt lat="43.18568" lon="6.47105">
        <ele>87.488922</ele>
        <time>2019-07-27T09:48:45Z</time>
      </trkpt>
      <trkpt lat="43.18554" lon="6.47164">
        <ele>83.827614</ele>
        <time>2019-07-27T09:48:51Z</time>
      </trkpt>
      <trkpt lat="43.18535" lon="6.47224">
        <ele>86.197678</ele>
        <time>2019-07-27T09:48:58Z</time>
      </trkpt>
      <trkpt lat="43.18553" lon="6.47282">
        <ele>77.33287</ele>
        <time>2019-07-27T09:49:04Z</time>
      </trkpt>
      <trkpt lat="43.18554" lon="6.47348">
        <ele>72.894592</ele>
        <time>2019-07-27T09:49:10Z</time>
      </trkpt>
      <trkpt lat="43.18514" lon="6.47385">
        <ele>78.212097</ele>
        <time>2019-07-27T09:49:16Z</time>
      </trkpt>
      <trkpt lat="43.18519" lon="6.47442">
        <ele>72.882347</ele>
        <time>2019-07-27T09:49:22Z</time>
      </trkpt>
      <trkpt lat="43.18503" lon="6.47499">
        <ele>73.476799</ele>
        <time>2019-07-27T09:49:29Z</time>
      </trkpt>
      <trkpt lat="43.18525" lon="6.47525">
        <ele>66.93</ele>
        <time>2019-07-27T09:49:37Z</time>
      </trkpt>
      <trkpt lat="43.18548" lon="6.47456">
        <ele>64.36055</ele>
        <time>2019-07-27T09:49:45Z</time>
      </trkpt>
      <trkpt lat="43.18576" lon="6.47407">
        <ele>60.833549</ele>
        <time>2019-07-27T09:49:51Z</time>
      </trkpt>
      <trkpt lat="43.18601" lon="6.47349">
        <ele>59.181801</ele>
        <time>2019-07-27T09:49:57Z</time>
      </trkpt>
      <trkpt lat="43.18618" lon="6.4729">
        <ele>57.049606</ele>
        <time>2019-07-27T09:50:02Z</time>
      </trkpt>
      <trkpt lat="43.18638" lon="6.47233">
        <ele>54.342793</ele>
        <time>2019-07-27T09:50:07Z</time>
      </trkpt>
      <trkpt lat="43.18662" lon="6.4718">
        <ele>52.438358</ele>
        <time>2019-07-27T09:50:12Z</time>
      </trkpt>
      <trkpt lat="43.18695" lon="6.47132">
        <ele>51.689701</ele>
        <time>2019-07-27T09:50:17Z</time>
      </trkpt>
      <trkpt lat="43.18733" lon="6.47089">
        <ele>49.894394</ele>
        <time>2019-07-27T09:50:22Z</time>
      </trkpt>
      <trkpt lat="43.18771" lon="6.47046">
        <ele>46.683449</ele>
        <time>2019-07-27T09:50:27Z</time>
      </trkpt>
      <trkpt lat="43.18813" lon="6.47029">
        <ele>44.162655</ele>
        <time>2019-07-27T09:50:34Z</time>
      </trkpt>
      <trkpt lat="43.18847" lon="6.47067">
        <ele>47.225578</ele>
        <time>2019-07-27T09:50:42Z</time>
      </trkpt>
      <trkpt lat="43.18889" lon="6.47063">
        <ele>45.922501</ele>
        <time>2019-07-27T09:50:52Z</time>
      </trkpt>
      <trkpt lat="43.18935" lon="6.4706">
        <ele>44.009014</ele>
        <time>2019-07-27T09:51:01Z</time>
      </trkpt>
      <trkpt lat="43.1898" lon="6.47079">
        <ele>43.759998</ele>
        <time>2019-07-27T09:51:12Z</time>
      </trkpt>
      <trkpt lat="43.19026" lon="6.47096">
        <ele>43.022499</ele>
        <time>2019-07-27T09:51:26Z</time>
      </trkpt>
      <trkpt lat="43.19071" lon="6.47121">
        <ele>41.557243</ele>
        <time>2019-07-27T09:51:40Z</time>
      </trkpt>
      <trkpt lat="43.19118" lon="6.47145">
        <ele>39.407383</ele>
        <time>2019-07-27T09:51:51Z</time>
      </trkpt>
      <trkpt lat="43.1916" lon="6.47155">
        <ele>37.612499</ele>
        <time>2019-07-27T09:51:59Z</time>
      </trkpt>
      <trkpt lat="43.19211" lon="6.47173">
        <ele>35.759998</ele>
        <time>2019-07-27T09:52:07Z</time>
      </trkpt>
      <trkpt lat="43.19261" lon="6.47187">
        <ele>33.915184</ele>
        <time>2019-07-27T09:52:15Z</time>
      </trkpt>
      <trkpt lat="43.19308" lon="6.47197">
        <ele>33.086494</ele>
        <time>2019-07-27T09:52:22Z</time>
      </trkpt>
      <trkpt lat="43.19353" lon="6.47206">
        <ele>31.971237</ele>
        <time>2019-07-27T09:52:31Z</time>
      </trkpt>
      <trkpt lat="43.19388" lon="6.4717">
        <ele>32.342377</ele>
        <time>2019-07-27T09:52:40Z</time>
      </trkpt>
      <trkpt lat="43.19435" lon="6.47175">
        <ele>35.195614</ele>
        <time>2019-07-27T09:52:50Z</time>
      </trkpt>
      <trkpt lat="43.19482" lon="6.47197">
        <ele>36.110466</ele>
        <time>2019-07-27T09:53:01Z</time>
      </trkpt>
      <trkpt lat="43.19527" lon="6.47223">
        <ele>37.875011</ele>
        <time>2019-07-27T09:53:11Z</time>
      </trkpt>
      <trkpt lat="43.19574" lon="6.47248">
        <ele>35.502605</ele>
        <time>2019-07-27T09:53:19Z</time>
      </trkpt>
      <trkpt lat="43.19616" lon="6.47268">
        <ele>32.903198</ele>
        <time>2019-07-27T09:53:27Z</time>
      </trkpt>
      <trkpt lat="43.19668" lon="6.4727">
        <ele>32.648438</ele>
        <time>2019-07-27T09:53:36Z</time>
      </trkpt>
      <trkpt lat="43.19717" lon="6.47257">
        <ele>33.732502</ele>
        <time>2019-07-27T09:53:45Z</time>
      </trkpt>
      <trkpt lat="43.19764" lon="6.47257">
        <ele>33.775875</ele>
        <time>2019-07-27T09:53:52Z</time>
      </trkpt>
      <trkpt lat="43.19809" lon="6.47274">
        <ele>32.136005</ele>
        <time>2019-07-27T09:53:59Z</time>
      </trkpt>
      <trkpt lat="43.19856" lon="6.47299">
        <ele>30.0625</ele>
        <time>2019-07-27T09:54:07Z</time>
      </trkpt>
      <trkpt lat="43.19903" lon="6.47316">
        <ele>29.656075</ele>
        <time>2019-07-27T09:54:14Z</time>
      </trkpt>
      <trkpt lat="43.1995" lon="6.47344">
        <ele>28.321775</ele>
        <time>2019-07-27T09:54:21Z</time>
      </trkpt>
      <trkpt lat="43.19999" lon="6.47355">
        <ele>28</ele>
        <time>2019-07-27T09:54:28Z</time>
      </trkpt>
      <trkpt lat="43.20046" lon="6.47365">
        <ele>28</ele>
        <time>2019-07-27T09:54:36Z</time>
      </trkpt>
      <trkpt lat="43.20094" lon="6.47373">
        <ele>28.685688</ele>
        <time>2019-07-27T09:54:45Z</time>
      </trkpt>
      <trkpt lat="43.20142" lon="6.47382">
        <ele>29</ele>
        <time>2019-07-27T09:54:55Z</time>
      </trkpt>
      <trkpt lat="43.20187" lon="6.47388">
        <ele>29</ele>
        <time>2019-07-27T09:55:06Z</time>
      </trkpt>
      <trkpt lat="43.20233" lon="6.47395">
        <ele>29.145622</ele>
        <time>2019-07-27T09:55:17Z</time>
      </trkpt>
      <trkpt lat="43.20281" lon="6.47405">
        <ele>29.910431</ele>
        <time>2019-07-27T09:55:29Z</time>
      </trkpt>
      <trkpt lat="43.20322" lon="6.47431">
        <ele>31.374525</ele>
        <time>2019-07-27T09:55:41Z</time>
      </trkpt>
      <trkpt lat="43.20366" lon="6.47442">
        <ele>31.96126</ele>
        <time>2019-07-27T09:55:52Z</time>
      </trkpt>
      <trkpt lat="43.2041" lon="6.47422">
        <ele>32</ele>
        <time>2019-07-27T09:56:01Z</time>
      </trkpt>
      <trkpt lat="43.20424" lon="6.47359">
        <ele>31.977501</ele>
        <time>2019-07-27T09:56:15Z</time>
      </trkpt>
      <trkpt lat="43.20444" lon="6.47301">
        <ele>31.832926</ele>
        <time>2019-07-27T09:56:26Z</time>
      </trkpt>
      <trkpt lat="43.2046" lon="6.4724">
        <ele>31.39875</ele>
        <time>2019-07-27T09:56:42Z</time>
      </trkpt>
      <trkpt lat="43.20464" lon="6.47173">
        <ele>31</ele>
        <time>2019-07-27T09:56:56Z</time>
      </trkpt>
      <trkpt lat="43.2047" lon="6.47104">
        <ele>30.1775</ele>
        <time>2019-07-27T09:57:12Z</time>
      </trkpt>
      <trkpt lat="43.2048" lon="6.47042">
        <ele>30</ele>
        <time>2019-07-27T09:57:29Z</time>
      </trkpt>
      <trkpt lat="43.20489" lon="6.46978">
        <ele>29.115</ele>
        <time>2019-07-27T09:57:44Z</time>
      </trkpt>
      <trkpt lat="43.205" lon="6.46917">
        <ele>29</ele>
        <time>2019-07-27T09:57:54Z</time>
      </trkpt>
      <trkpt lat="43.20509" lon="6.46851">
        <ele>28.0275</ele>
        <time>2019-07-27T09:58:05Z</time>
      </trkpt>
      <trkpt lat="43.20519" lon="6.46791">
        <ele>28</ele>
        <time>2019-07-27T09:58:15Z</time>
      </trkpt>
      <trkpt lat="43.20528" lon="6.46731">
        <ele>28.207441</ele>
        <time>2019-07-27T09:58:31Z</time>
      </trkpt>
      <trkpt lat="43.20566" lon="6.467">
        <ele>28.192297</ele>
        <time>2019-07-27T09:58:43Z</time>
      </trkpt>
      <trkpt lat="43.20605" lon="6.46666">
        <ele>28</ele>
        <time>2019-07-27T09:58:57Z</time>
      </trkpt>
      <trkpt lat="43.20645" lon="6.46634">
        <ele>28.202675</ele>
        <time>2019-07-27T09:59:15Z</time>
      </trkpt>
      <trkpt lat="43.20687" lon="6.46599">
        <ele>28.30345</ele>
        <time>2019-07-27T09:59:29Z</time>
      </trkpt>
      <trkpt lat="43.2073" lon="6.46564">
        <ele>28.483301</ele>
        <time>2019-07-27T09:59:44Z</time>
      </trkpt>
      <trkpt lat="43.20725" lon="6.46567">
        <ele>28.370163</ele>
        <time>2019-07-27T10:02:41Z</time>
      </trkpt>
      <trkpt lat="43.20683" lon="6.46604">
        <ele>28.212994</ele>
        <time>2019-07-27T10:02:56Z</time>
      </trkpt>
      <trkpt lat="43.20638" lon="6.46639">
        <ele>28.130388</ele>
        <time>2019-07-27T10:03:08Z</time>
      </trkpt>
      <trkpt lat="43.20599" lon="6.46676">
        <ele>28.024937</ele>
        <time>2019-07-27T10:03:22Z</time>
      </trkpt>
      <trkpt lat="43.20561" lon="6.46713">
        <ele>28.139437</ele>
        <time>2019-07-27T10:03:32Z</time>
      </trkpt>
      <trkpt lat="43.20522" lon="6.46746">
        <ele>28.227093</ele>
        <time>2019-07-27T10:03:44Z</time>
      </trkpt>
      <trkpt lat="43.2053" lon="6.46798">
        <ele>28</ele>
        <time>2019-07-27T10:04:00Z</time>
      </trkpt>
      <trkpt lat="43.20522" lon="6.46862">
        <ele>28.188749</ele>
        <time>2019-07-27T10:04:10Z</time>
      </trkpt>
      <trkpt lat="43.20512" lon="6.46928">
        <ele>29</ele>
        <time>2019-07-27T10:04:18Z</time>
      </trkpt>
      <trkpt lat="43.20502" lon="6.46988">
        <ele>29.26</ele>
        <time>2019-07-27T10:04:26Z</time>
      </trkpt>
      <trkpt lat="43.20491" lon="6.47049">
        <ele>30</ele>
        <time>2019-07-27T10:04:34Z</time>
      </trkpt>
      <trkpt lat="43.2048" lon="6.4711">
        <ele>30.255463</ele>
        <time>2019-07-27T10:04:43Z</time>
      </trkpt>
      <trkpt lat="43.20471" lon="6.47177">
        <ele>31</ele>
        <time>2019-07-27T10:04:52Z</time>
      </trkpt>
      <trkpt lat="43.20468" lon="6.47241">
        <ele>31.41625</ele>
        <time>2019-07-27T10:05:01Z</time>
      </trkpt>
      <trkpt lat="43.20463" lon="6.47311">
        <ele>31.540422</ele>
        <time>2019-07-27T10:05:10Z</time>
      </trkpt>
      <trkpt lat="43.20457" lon="6.47374">
        <ele>31.24</ele>
        <time>2019-07-27T10:05:18Z</time>
      </trkpt>
      <trkpt lat="43.20428" lon="6.47418">
        <ele>31.779932</ele>
        <time>2019-07-27T10:05:27Z</time>
      </trkpt>
      <trkpt lat="43.20385" lon="6.4744">
        <ele>32</ele>
        <time>2019-07-27T10:05:37Z</time>
      </trkpt>
      <trkpt lat="43.20334" lon="6.47433">
        <ele>31.709412</ele>
        <time>2019-07-27T10:05:48Z</time>
      </trkpt>
      <trkpt lat="43.20288" lon="6.47404">
        <ele>30.054081</ele>
        <time>2019-07-27T10:05:58Z</time>
      </trkpt>
      <trkpt lat="43.20242" lon="6.47392">
        <ele>29.122513</ele>
        <time>2019-07-27T10:06:06Z</time>
      </trkpt>
      <trkpt lat="43.20193" lon="6.47385">
        <ele>29</ele>
        <time>2019-07-27T10:06:14Z</time>
      </trkpt>
      <trkpt lat="43.20144" lon="6.47382">
        <ele>29</ele>
        <time>2019-07-27T10:06:25Z</time>
      </trkpt>
      <trkpt lat="43.20137" lon="6.47397">
        <ele>29</ele>
        <time>2019-07-27T10:08:17Z</time>
      </trkpt>
      <trkpt lat="43.20142" lon="6.47427">
        <ele>29</ele>
        <time>2019-07-27T10:09:26Z</time>
      </trkpt>
      <trkpt lat="43.20165" lon="6.47487">
        <ele>29</ele>
        <time>2019-07-27T10:09:41Z</time>
      </trkpt>
      <trkpt lat="43.20171" lon="6.47546">
        <ele>29</ele>
        <time>2019-07-27T10:09:57Z</time>
      </trkpt>
      <trkpt lat="43.20156" lon="6.47604">
        <ele>29</ele>
        <time>2019-07-27T10:10:12Z</time>
      </trkpt>
      <trkpt lat="43.20157" lon="6.47668">
        <ele>29.243843</ele>
        <time>2019-07-27T10:10:26Z</time>
      </trkpt>
      <trkpt lat="43.20145" lon="6.47734">
        <ele>29.026831</ele>
        <time>2019-07-27T10:10:39Z</time>
      </trkpt>
      <trkpt lat="43.20139" lon="6.47801">
        <ele>29</ele>
        <time>2019-07-27T10:10:55Z</time>
      </trkpt>
      <trkpt lat="43.20153" lon="6.47866">
        <ele>29</ele>
        <time>2019-07-27T10:11:17Z</time>
      </trkpt>
      <trkpt lat="43.20162" lon="6.4793">
        <ele>29.303905</ele>
        <time>2019-07-27T10:11:34Z</time>
      </trkpt>
      <trkpt lat="43.2018" lon="6.47987">
        <ele>28.884228</ele>
        <time>2019-07-27T10:11:49Z</time>
      </trkpt>
      <trkpt lat="43.20207" lon="6.48035">
        <ele>28.2225</ele>
        <time>2019-07-27T10:12:02Z</time>
      </trkpt>
      <trkpt lat="43.20237" lon="6.48081">
        <ele>28.178213</ele>
        <time>2019-07-27T10:12:12Z</time>
      </trkpt>
      <trkpt lat="43.20264" lon="6.48131">
        <ele>28.419203</ele>
        <time>2019-07-27T10:12:21Z</time>
      </trkpt>
      <trkpt lat="43.20272" lon="6.48195">
        <ele>30.971331</ele>
        <time>2019-07-27T10:12:33Z</time>
      </trkpt>
      <trkpt lat="43.20286" lon="6.4826">
        <ele>31.948906</ele>
        <time>2019-07-27T10:12:44Z</time>
      </trkpt>
      <trkpt lat="43.20295" lon="6.48326">
        <ele>33.161251</ele>
        <time>2019-07-27T10:12:55Z</time>
      </trkpt>
      <trkpt lat="43.20325" lon="6.48379">
        <ele>32.448437</ele>
        <time>2019-07-27T10:13:04Z</time>
      </trkpt>
      <trkpt lat="43.20346" lon="6.48438">
        <ele>30.888311</ele>
        <time>2019-07-27T10:13:15Z</time>
      </trkpt>
      <trkpt lat="43.20378" lon="6.48486">
        <ele>29.377781</ele>
        <time>2019-07-27T10:13:24Z</time>
      </trkpt>
      <trkpt lat="43.20407" lon="6.48534">
        <ele>28.776932</ele>
        <time>2019-07-27T10:13:36Z</time>
      </trkpt>
      <trkpt lat="43.20439" lon="6.48571">
        <ele>29.257738</ele>
        <time>2019-07-27T10:13:50Z</time>
      </trkpt>
      <trkpt lat="43.20475" lon="6.48608">
        <ele>29.20215</ele>
        <time>2019-07-27T10:14:04Z</time>
      </trkpt>
      <trkpt lat="43.20501" lon="6.48665">
        <ele>30.047482</ele>
        <time>2019-07-27T10:14:17Z</time>
      </trkpt>
      <trkpt lat="43.20529" lon="6.48714">
        <ele>29.109072</ele>
        <time>2019-07-27T10:14:33Z</time>
      </trkpt>
      <trkpt lat="43.20555" lon="6.48771">
        <ele>27.191774</ele>
        <time>2019-07-27T10:14:56Z</time>
      </trkpt>
      <trkpt lat="43.20582" lon="6.48825">
        <ele>24.677401</ele>
        <time>2019-07-27T10:15:11Z</time>
      </trkpt>
      <trkpt lat="43.20613" lon="6.48874">
        <ele>24.969999</ele>
        <time>2019-07-27T10:15:28Z</time>
      </trkpt>
      <trkpt lat="43.20652" lon="6.48901">
        <ele>24.875</ele>
        <time>2019-07-27T10:15:42Z</time>
      </trkpt>
      <trkpt lat="43.20674" lon="6.48954">
        <ele>26.24375</ele>
        <time>2019-07-27T10:15:57Z</time>
      </trkpt>
      <trkpt lat="43.207" lon="6.49015">
        <ele>26.70125</ele>
        <time>2019-07-27T10:16:08Z</time>
      </trkpt>
      <trkpt lat="43.20732" lon="6.49065">
        <ele>24.793751</ele>
        <time>2019-07-27T10:16:18Z</time>
      </trkpt>
      <trkpt lat="43.20763" lon="6.4912">
        <ele>24.1</ele>
        <time>2019-07-27T10:16:30Z</time>
      </trkpt>
      <trkpt lat="43.20791" lon="6.49175">
        <ele>24.96125</ele>
        <time>2019-07-27T10:16:40Z</time>
      </trkpt>
      <trkpt lat="43.20821" lon="6.49218">
        <ele>24.610428</ele>
        <time>2019-07-27T10:16:50Z</time>
      </trkpt>
      <trkpt lat="43.20862" lon="6.49236">
        <ele>21.832663</ele>
        <time>2019-07-27T10:16:58Z</time>
      </trkpt>
      <trkpt lat="43.20899" lon="6.49278">
        <ele>21.63625</ele>
        <time>2019-07-27T10:17:09Z</time>
      </trkpt>
      <trkpt lat="43.20938" lon="6.49317">
        <ele>21.705</ele>
        <time>2019-07-27T10:17:20Z</time>
      </trkpt>
      <trkpt lat="43.20977" lon="6.49355">
        <ele>22.347149</ele>
        <time>2019-07-27T10:17:31Z</time>
      </trkpt>
      <trkpt lat="43.21016" lon="6.49393">
        <ele>20.980934</ele>
        <time>2019-07-27T10:17:41Z</time>
      </trkpt>
      <trkpt lat="43.21055" lon="6.49422">
        <ele>19.355</ele>
        <time>2019-07-27T10:17:57Z</time>
      </trkpt>
      <trkpt lat="43.2104" lon="6.49443">
        <ele>19.995001</ele>
        <time>2019-07-27T10:18:17Z</time>
      </trkpt>
      <trkpt lat="43.20994" lon="6.49463">
        <ele>22.5525</ele>
        <time>2019-07-27T10:18:36Z</time>
      </trkpt>
      <trkpt lat="43.2096" lon="6.49507">
        <ele>23.235413</ele>
        <time>2019-07-27T10:18:53Z</time>
      </trkpt>
      <trkpt lat="43.2092" lon="6.49552">
        <ele>26.42881</ele>
        <time>2019-07-27T10:19:09Z</time>
      </trkpt>
      <trkpt lat="43.20888" lon="6.49606">
        <ele>28.091284</ele>
        <time>2019-07-27T10:19:17Z</time>
      </trkpt>
      <trkpt lat="43.20907" lon="6.49637">
        <ele>31.297834</ele>
        <time>2019-07-27T10:19:38Z</time>
      </trkpt>
      <trkpt lat="43.20952" lon="6.49644">
        <ele>34.587502</ele>
        <time>2019-07-27T10:20:02Z</time>
      </trkpt>
      <trkpt lat="43.20989" lon="6.49681">
        <ele>36.2738</ele>
        <time>2019-07-27T10:20:24Z</time>
      </trkpt>
      <trkpt lat="43.2101" lon="6.49739">
        <ele>34.942501</ele>
        <time>2019-07-27T10:21:03Z</time>
      </trkpt>
      <trkpt lat="43.21033" lon="6.49795">
        <ele>30.403131</ele>
        <time>2019-07-27T10:21:13Z</time>
      </trkpt>
      <trkpt lat="43.21048" lon="6.49853">
        <ele>25.65905</ele>
        <time>2019-07-27T10:21:20Z</time>
      </trkpt>
      <trkpt lat="43.21026" lon="6.49914">
        <ele>29.971796</ele>
        <time>2019-07-27T10:21:29Z</time>
      </trkpt>
      <trkpt lat="43.21066" lon="6.49932">
        <ele>25.465935</ele>
        <time>2019-07-27T10:21:42Z</time>
      </trkpt>
      <trkpt lat="43.21083" lon="6.49994">
        <ele>29.836798</ele>
        <time>2019-07-27T10:21:55Z</time>
      </trkpt>
      <trkpt lat="43.2111" lon="6.50045">
        <ele>31.378626</ele>
        <time>2019-07-27T10:22:05Z</time>
      </trkpt>
      <trkpt lat="43.21144" lon="6.50092">
        <ele>33.929375</ele>
        <time>2019-07-27T10:22:18Z</time>
      </trkpt>
      <trkpt lat="43.21188" lon="6.50114">
        <ele>29.339624</ele>
        <time>2019-07-27T10:22:31Z</time>
      </trkpt>
      <trkpt lat="43.21227" lon="6.50146">
        <ele>27.02375</ele>
        <time>2019-07-27T10:22:43Z</time>
      </trkpt>
      <trkpt lat="43.21256" lon="6.50193">
        <ele>27.196066</ele>
        <time>2019-07-27T10:22:51Z</time>
      </trkpt>
      <trkpt lat="43.21295" lon="6.50165">
        <ele>25.023462</ele>
        <time>2019-07-27T10:24:43Z</time>
      </trkpt>
      <trkpt lat="43.2133" lon="6.50206">
        <ele>31.673</ele>
        <time>2019-07-27T10:25:05Z</time>
      </trkpt>
      <trkpt lat="43.21356" lon="6.50257">
        <ele>36.408314</ele>
        <time>2019-07-27T10:25:36Z</time>
      </trkpt>
      <trkpt lat="43.21364" lon="6.50319">
        <ele>42.989712</ele>
        <time>2019-07-27T10:26:09Z</time>
      </trkpt>
      <trkpt lat="43.21391" lon="6.50352">
        <ele>40.784279</ele>
        <time>2019-07-27T10:26:32Z</time>
      </trkpt>
      <trkpt lat="43.21415" lon="6.50393">
        <ele>37.916698</ele>
        <time>2019-07-27T10:30:36Z</time>
      </trkpt>
      <trkpt lat="43.21419" lon="6.50458">
        <ele>38.766975</ele>
        <time>2019-07-27T10:30:46Z</time>
      </trkpt>
      <trkpt lat="43.21453" lon="6.50487">
        <ele>39.952499</ele>
        <time>2019-07-27T10:30:55Z</time>
      </trkpt>
      <trkpt lat="43.21474" lon="6.5043">
        <ele>36.450001</ele>
        <time>2019-07-27T10:31:09Z</time>
      </trkpt>
      <trkpt lat="43.21512" lon="6.50395">
        <ele>31.306</ele>
        <time>2019-07-27T10:31:31Z</time>
      </trkpt>
      <trkpt lat="43.21558" lon="6.50403">
        <ele>27.991875</ele>
        <time>2019-07-27T10:31:58Z</time>
      </trkpt>
      <trkpt lat="43.21601" lon="6.50437">
        <ele>25.583588</ele>
        <time>2019-07-27T10:32:06Z</time>
      </trkpt>
      <trkpt lat="43.21638" lon="6.50476">
        <ele>25.556</ele>
        <time>2019-07-27T10:32:13Z</time>
      </trkpt>
      <trkpt lat="43.21675" lon="6.50518">
        <ele>25.513643</ele>
        <time>2019-07-27T10:32:22Z</time>
      </trkpt>
      <trkpt lat="43.21715" lon="6.50553">
        <ele>25.529087</ele>
        <time>2019-07-27T10:32:31Z</time>
      </trkpt>
      <trkpt lat="43.21754" lon="6.50583">
        <ele>24.874226</ele>
        <time>2019-07-27T10:32:43Z</time>
      </trkpt>
      <trkpt lat="43.21796" lon="6.5061">
        <ele>23.722132</ele>
        <time>2019-07-27T10:32:53Z</time>
      </trkpt>
      <trkpt lat="43.21843" lon="6.50633">
        <ele>25.241297</ele>
        <time>2019-07-27T10:33:05Z</time>
      </trkpt>
      <trkpt lat="43.21891" lon="6.50655">
        <ele>27.550001</ele>
        <time>2019-07-27T10:33:14Z</time>
      </trkpt>
      <trkpt lat="43.21944" lon="6.5067">
        <ele>25.023094</ele>
        <time>2019-07-27T10:33:25Z</time>
      </trkpt>
      <trkpt lat="43.2199" lon="6.50686">
        <ele>24.597237</ele>
        <time>2019-07-27T10:33:36Z</time>
      </trkpt>
      <trkpt lat="43.22031" lon="6.50718">
        <ele>26.367134</ele>
        <time>2019-07-27T10:33:46Z</time>
      </trkpt>
      <trkpt lat="43.2207" lon="6.50748">
        <ele>27.881882</ele>
        <time>2019-07-27T10:33:56Z</time>
      </trkpt>
      <trkpt lat="43.2212" lon="6.50764">
        <ele>25.022907</ele>
        <time>2019-07-27T10:34:07Z</time>
      </trkpt>
      <trkpt lat="43.22163" lon="6.508">
        <ele>24.063049</ele>
        <time>2019-07-27T10:34:18Z</time>
      </trkpt>
      <trkpt lat="43.22209" lon="6.50835">
        <ele>22.099199</ele>
        <time>2019-07-27T10:34:29Z</time>
      </trkpt>
      <trkpt lat="43.22246" lon="6.5088">
        <ele>20.590563</ele>
        <time>2019-07-27T10:34:39Z</time>
      </trkpt>
      <trkpt lat="43.22282" lon="6.50921">
        <ele>19.245001</ele>
        <time>2019-07-27T10:34:51Z</time>
      </trkpt>
      <trkpt lat="43.22317" lon="6.50964">
        <ele>18</ele>
        <time>2019-07-27T10:35:02Z</time>
      </trkpt>
      <trkpt lat="43.22352" lon="6.51012">
        <ele>18.5</ele>
        <time>2019-07-27T10:35:16Z</time>
      </trkpt>
      <trkpt lat="43.22378" lon="6.51067">
        <ele>19.637613</ele>
        <time>2019-07-27T10:35:28Z</time>
      </trkpt>
      <trkpt lat="43.2241" lon="6.51118">
        <ele>20.084738</ele>
        <time>2019-07-27T10:35:39Z</time>
      </trkpt>
      <trkpt lat="43.22446" lon="6.51167">
        <ele>20.3594</ele>
        <time>2019-07-27T10:35:49Z</time>
      </trkpt>
      <trkpt lat="43.22482" lon="6.51204">
        <ele>20.31065</ele>
        <time>2019-07-27T10:36:00Z</time>
      </trkpt>
      <trkpt lat="43.22526" lon="6.51225">
        <ele>19.4823</ele>
        <time>2019-07-27T10:36:12Z</time>
      </trkpt>
      <trkpt lat="43.22571" lon="6.51252">
        <ele>19.483318</ele>
        <time>2019-07-27T10:36:24Z</time>
      </trkpt>
      <trkpt lat="43.22616" lon="6.51275">
        <ele>19.9</ele>
        <time>2019-07-27T10:36:35Z</time>
      </trkpt>
      <trkpt lat="43.22661" lon="6.51314">
        <ele>18.869204</ele>
        <time>2019-07-27T10:36:50Z</time>
      </trkpt>
      <trkpt lat="43.22703" lon="6.51352">
        <ele>18.664024</ele>
        <time>2019-07-27T10:37:00Z</time>
      </trkpt>
      <trkpt lat="43.22733" lon="6.51404">
        <ele>19.494968</ele>
        <time>2019-07-27T10:37:12Z</time>
      </trkpt>
      <trkpt lat="43.22753" lon="6.51463">
        <ele>19.920549</ele>
        <time>2019-07-27T10:37:25Z</time>
      </trkpt>
      <trkpt lat="43.22758" lon="6.5152">
        <ele>20.207075</ele>
        <time>2019-07-27T10:37:42Z</time>
      </trkpt>
      <trkpt lat="43.22771" lon="6.51589">
        <ele>19.161922</ele>
        <time>2019-07-27T10:37:56Z</time>
      </trkpt>
      <trkpt lat="43.22764" lon="6.51658">
        <ele>18.941626</ele>
        <time>2019-07-27T10:38:09Z</time>
      </trkpt>
      <trkpt lat="43.2276" lon="6.51727">
        <ele>18.723394</ele>
        <time>2019-07-27T10:38:21Z</time>
      </trkpt>
      <trkpt lat="43.22751" lon="6.51794">
        <ele>18.5625</ele>
        <time>2019-07-27T10:38:33Z</time>
      </trkpt>
      <trkpt lat="43.22736" lon="6.51854">
        <ele>18.1854</ele>
        <time>2019-07-27T10:38:43Z</time>
      </trkpt>
      <trkpt lat="43.22717" lon="6.51913">
        <ele>18.348562</ele>
        <time>2019-07-27T10:38:54Z</time>
      </trkpt>
      <trkpt lat="43.22706" lon="6.51974">
        <ele>19.346094</ele>
        <time>2019-07-27T10:39:07Z</time>
      </trkpt>
      <trkpt lat="43.22718" lon="6.52038">
        <ele>18.9725</ele>
        <time>2019-07-27T10:39:22Z</time>
      </trkpt>
      <trkpt lat="43.22721" lon="6.52101">
        <ele>18.963381</ele>
        <time>2019-07-27T10:39:37Z</time>
      </trkpt>
      <trkpt lat="43.22736" lon="6.52158">
        <ele>19</ele>
        <time>2019-07-27T10:39:48Z</time>
      </trkpt>
      <trkpt lat="43.22776" lon="6.5219">
        <ele>18.85125</ele>
        <time>2019-07-27T10:39:58Z</time>
      </trkpt>
      <trkpt lat="43.22825" lon="6.52205">
        <ele>18.850103</ele>
        <time>2019-07-27T10:40:10Z</time>
      </trkpt>
      <trkpt lat="43.22874" lon="6.52208">
        <ele>19</ele>
        <time>2019-07-27T10:40:20Z</time>
      </trkpt>
      <trkpt lat="43.22918" lon="6.52233">
        <ele>19</ele>
        <time>2019-07-27T10:40:34Z</time>
      </trkpt>
      <trkpt lat="43.22945" lon="6.52286">
        <ele>19</ele>
        <time>2019-07-27T10:40:45Z</time>
      </trkpt>
      <trkpt lat="43.22962" lon="6.52351">
        <ele>19</ele>
        <time>2019-07-27T10:40:58Z</time>
      </trkpt>
      <trkpt lat="43.2299" lon="6.52407">
        <ele>19</ele>
        <time>2019-07-27T10:41:10Z</time>
      </trkpt>
      <trkpt lat="43.23024" lon="6.52452">
        <ele>18.97714</ele>
        <time>2019-07-27T10:41:21Z</time>
      </trkpt>
      <trkpt lat="43.23062" lon="6.52495">
        <ele>18.215612</ele>
        <time>2019-07-27T10:41:32Z</time>
      </trkpt>
      <trkpt lat="43.23084" lon="6.52548">
        <ele>18</ele>
        <time>2019-07-27T10:41:45Z</time>
      </trkpt>
      <trkpt lat="43.23124" lon="6.52592">
        <ele>18</ele>
        <time>2019-07-27T10:41:57Z</time>
      </trkpt>
      <trkpt lat="43.23174" lon="6.52577">
        <ele>18</ele>
        <time>2019-07-27T10:42:10Z</time>
      </trkpt>
      <trkpt lat="43.23212" lon="6.52606">
        <ele>18</ele>
        <time>2019-07-27T10:42:21Z</time>
      </trkpt>
      <trkpt lat="43.23247" lon="6.52649">
        <ele>18</ele>
        <time>2019-07-27T10:42:32Z</time>
      </trkpt>
      <trkpt lat="43.23281" lon="6.52691">
        <ele>17.925018</ele>
        <time>2019-07-27T10:42:41Z</time>
      </trkpt>
      <trkpt lat="43.23316" lon="6.52735">
        <ele>17.075001</ele>
        <time>2019-07-27T10:42:54Z</time>
      </trkpt>
      <trkpt lat="43.23351" lon="6.52783">
        <ele>17</ele>
        <time>2019-07-27T10:43:06Z</time>
      </trkpt>
      <trkpt lat="43.23382" lon="6.5283">
        <ele>17</ele>
        <time>2019-07-27T10:43:16Z</time>
      </trkpt>
      <trkpt lat="43.23414" lon="6.52881">
        <ele>17</ele>
        <time>2019-07-27T10:43:28Z</time>
      </trkpt>
      <trkpt lat="43.23442" lon="6.52934">
        <ele>17</ele>
        <time>2019-07-27T10:43:39Z</time>
      </trkpt>
      <trkpt lat="43.23444" lon="6.53008">
        <ele>17</ele>
        <time>2019-07-27T10:43:55Z</time>
      </trkpt>
      <trkpt lat="43.23445" lon="6.53076">
        <ele>16.23625</ele>
        <time>2019-07-27T10:44:07Z</time>
      </trkpt>
      <trkpt lat="43.23467" lon="6.53129">
        <ele>16</ele>
        <time>2019-07-27T10:44:23Z</time>
      </trkpt>
      <trkpt lat="43.23503" lon="6.53162">
        <ele>16.0438</ele>
        <time>2019-07-27T10:44:42Z</time>
      </trkpt>
      <trkpt lat="43.23547" lon="6.53197">
        <ele>16</ele>
        <time>2019-07-27T10:44:55Z</time>
      </trkpt>
      <trkpt lat="43.23575" lon="6.53252">
        <ele>16</ele>
        <time>2019-07-27T10:45:08Z</time>
      </trkpt>
      <trkpt lat="43.23598" lon="6.5331">
        <ele>15.730266</ele>
        <time>2019-07-27T10:45:19Z</time>
      </trkpt>
      <trkpt lat="43.23625" lon="6.53368">
        <ele>15.18995</ele>
        <time>2019-07-27T10:45:29Z</time>
      </trkpt>
      <trkpt lat="43.23647" lon="6.53423">
        <ele>15.27625</ele>
        <time>2019-07-27T10:45:40Z</time>
      </trkpt>
      <trkpt lat="43.23665" lon="6.53486">
        <ele>16.099506</ele>
        <time>2019-07-27T10:45:50Z</time>
      </trkpt>
      <trkpt lat="43.23681" lon="6.53547">
        <ele>16.3825</ele>
        <time>2019-07-27T10:45:59Z</time>
      </trkpt>
      <trkpt lat="43.23695" lon="6.5361">
        <ele>17.01</ele>
        <time>2019-07-27T10:46:09Z</time>
      </trkpt>
      <trkpt lat="43.23709" lon="6.53674">
        <ele>17.589378</ele>
        <time>2019-07-27T10:46:21Z</time>
      </trkpt>
      <trkpt lat="43.23718" lon="6.53741">
        <ele>18.059021</ele>
        <time>2019-07-27T10:46:31Z</time>
      </trkpt>
      <trkpt lat="43.2374" lon="6.53802">
        <ele>18</ele>
        <time>2019-07-27T10:46:42Z</time>
      </trkpt>
      <trkpt lat="43.23759" lon="6.53861">
        <ele>18</ele>
        <time>2019-07-27T10:46:54Z</time>
      </trkpt>
      <trkpt lat="43.23781" lon="6.53917">
        <ele>18</ele>
        <time>2019-07-27T10:47:04Z</time>
      </trkpt>
      <trkpt lat="43.23808" lon="6.5397">
        <ele>18</ele>
        <time>2019-07-27T10:47:16Z</time>
      </trkpt>
      <trkpt lat="43.23841" lon="6.5402">
        <ele>17.272499</ele>
        <time>2019-07-27T10:47:28Z</time>
      </trkpt>
      <trkpt lat="43.23867" lon="6.54074">
        <ele>17</ele>
        <time>2019-07-27T10:47:41Z</time>
      </trkpt>
      <trkpt lat="43.23889" lon="6.54128">
        <ele>17</ele>
        <time>2019-07-27T10:47:52Z</time>
      </trkpt>
      <trkpt lat="43.23916" lon="6.54185">
        <ele>17.100998</ele>
        <time>2019-07-27T10:48:05Z</time>
      </trkpt>
      <trkpt lat="43.23947" lon="6.54236">
        <ele>17.005474</ele>
        <time>2019-07-27T10:48:18Z</time>
      </trkpt>
      <trkpt lat="43.23973" lon="6.54291">
        <ele>17.093658</ele>
        <time>2019-07-27T10:48:28Z</time>
      </trkpt>
      <trkpt lat="43.24006" lon="6.54338">
        <ele>17.598749</ele>
        <time>2019-07-27T10:48:40Z</time>
      </trkpt>
      <trkpt lat="43.24042" lon="6.54385">
        <ele>17.485001</ele>
        <time>2019-07-27T10:48:53Z</time>
      </trkpt>
      <trkpt lat="43.24089" lon="6.54426">
        <ele>17</ele>
        <time>2019-07-27T10:49:04Z</time>
      </trkpt>
      <trkpt lat="43.24129" lon="6.54461">
        <ele>17</ele>
        <time>2019-07-27T10:49:19Z</time>
      </trkpt>
      <trkpt lat="43.24185" lon="6.54501">
        <ele>16.217501</ele>
        <time>2019-07-27T10:50:53Z</time>
      </trkpt>
      <trkpt lat="43.24229" lon="6.5453">
        <ele>16</ele>
        <time>2019-07-27T10:51:06Z</time>
      </trkpt>
      <trkpt lat="43.24269" lon="6.54568">
        <ele>15.979444</ele>
        <time>2019-07-27T10:51:16Z</time>
      </trkpt>
      <trkpt lat="43.24309" lon="6.54608">
        <ele>15.141525</ele>
        <time>2019-07-27T10:51:27Z</time>
      </trkpt>
      <trkpt lat="43.24349" lon="6.54647">
        <ele>15</ele>
        <time>2019-07-27T10:51:38Z</time>
      </trkpt>
      <trkpt lat="43.24386" lon="6.54684">
        <ele>14.686631</ele>
        <time>2019-07-27T10:51:48Z</time>
      </trkpt>
      <trkpt lat="43.24425" lon="6.54722">
        <ele>14</ele>
        <time>2019-07-27T10:52:00Z</time>
      </trkpt>
      <trkpt lat="43.24426" lon="6.54782">
        <ele>14.186037</ele>
        <time>2019-07-27T10:52:12Z</time>
      </trkpt>
      <trkpt lat="43.24431" lon="6.54845">
        <ele>14.4525</ele>
        <time>2019-07-27T10:52:22Z</time>
      </trkpt>
      <trkpt lat="43.24441" lon="6.54905">
        <ele>14.45375</ele>
        <time>2019-07-27T10:52:36Z</time>
      </trkpt>
      <trkpt lat="43.2448" lon="6.54938">
        <ele>14.228738</ele>
        <time>2019-07-27T10:52:51Z</time>
      </trkpt>
      <trkpt lat="43.24519" lon="6.54975">
        <ele>14.127969</ele>
        <time>2019-07-27T10:53:05Z</time>
      </trkpt>
      <trkpt lat="43.24548" lon="6.54964">
        <ele>13.74</ele>
        <time>2019-07-27T10:53:21Z</time>
      </trkpt>
      <trkpt lat="43.24553" lon="6.54901">
        <ele>13.69</ele>
        <time>2019-07-27T10:53:36Z</time>
      </trkpt>
      <trkpt lat="43.24572" lon="6.54843">
        <ele>13.3225</ele>
        <time>2019-07-27T10:53:45Z</time>
      </trkpt>
      <trkpt lat="43.24594" lon="6.54785">
        <ele>13.017297</ele>
        <time>2019-07-27T10:53:53Z</time>
      </trkpt>
      <trkpt lat="43.24612" lon="6.54722">
        <ele>13</ele>
        <time>2019-07-27T10:54:02Z</time>
      </trkpt>
      <trkpt lat="43.24634" lon="6.54663">
        <ele>13</ele>
        <time>2019-07-27T10:54:13Z</time>
      </trkpt>
      <trkpt lat="43.24656" lon="6.54608">
        <ele>13</ele>
        <time>2019-07-27T10:54:22Z</time>
      </trkpt>
      <trkpt lat="43.2468" lon="6.54548">
        <ele>13</ele>
        <time>2019-07-27T10:54:31Z</time>
      </trkpt>
      <trkpt lat="43.24706" lon="6.54499">
        <ele>12.864968</ele>
        <time>2019-07-27T10:54:40Z</time>
      </trkpt>
      <trkpt lat="43.24745" lon="6.54466">
        <ele>12.844975</ele>
        <time>2019-07-27T10:54:48Z</time>
      </trkpt>
      <trkpt lat="43.24787" lon="6.54434">
        <ele>12.695562</ele>
        <time>2019-07-27T10:54:56Z</time>
      </trkpt>
      <trkpt lat="43.24827" lon="6.54402">
        <ele>12.358516</ele>
        <time>2019-07-27T10:55:05Z</time>
      </trkpt>
      <trkpt lat="43.2487" lon="6.54368">
        <ele>12.93875</ele>
        <time>2019-07-27T10:55:15Z</time>
      </trkpt>
      <trkpt lat="43.2491" lon="6.54339">
        <ele>12.2475</ele>
        <time>2019-07-27T10:55:23Z</time>
      </trkpt>
      <trkpt lat="43.24948" lon="6.54372">
        <ele>11.365</ele>
        <time>2019-07-27T10:55:33Z</time>
      </trkpt>
      <trkpt lat="43.24983" lon="6.54417">
        <ele>10.67695</ele>
        <time>2019-07-27T10:55:45Z</time>
      </trkpt>
      <trkpt lat="43.24993" lon="6.54476">
        <ele>10.753625</ele>
        <time>2019-07-27T10:55:57Z</time>
      </trkpt>
      <trkpt lat="43.25032" lon="6.54459">
        <ele>10.1479</ele>
        <time>2019-07-27T10:56:23Z</time>
      </trkpt>
      <trkpt lat="43.25067" lon="6.54502">
        <ele>10.003075</ele>
        <time>2019-07-27T10:56:34Z</time>
      </trkpt>
      <trkpt lat="43.25102" lon="6.54542">
        <ele>9.874694</ele>
        <time>2019-07-27T10:56:46Z</time>
      </trkpt>
      <trkpt lat="43.25139" lon="6.54586">
        <ele>8.94</ele>
        <time>2019-07-27T10:56:56Z</time>
      </trkpt>
      <trkpt lat="43.25175" lon="6.54634">
        <ele>8.091863</ele>
        <time>2019-07-27T10:57:05Z</time>
      </trkpt>
      <trkpt lat="43.25212" lon="6.54682">
        <ele>8.75</ele>
        <time>2019-07-27T10:57:14Z</time>
      </trkpt>
      <trkpt lat="43.25244" lon="6.54728">
        <ele>9</ele>
        <time>2019-07-27T10:57:23Z</time>
      </trkpt>
      <trkpt lat="43.25278" lon="6.54775">
        <ele>9</ele>
        <time>2019-07-27T10:57:32Z</time>
      </trkpt>
      <trkpt lat="43.25314" lon="6.54822">
        <ele>9</ele>
        <time>2019-07-27T10:57:43Z</time>
      </trkpt>
      <trkpt lat="43.25347" lon="6.54872">
        <ele>9</ele>
        <time>2019-07-27T10:57:54Z</time>
      </trkpt>
      <trkpt lat="43.25371" lon="6.54927">
        <ele>9</ele>
        <time>2019-07-27T10:58:03Z</time>
      </trkpt>
      <trkpt lat="43.25393" lon="6.54991">
        <ele>9</ele>
        <time>2019-07-27T10:58:15Z</time>
      </trkpt>
      <trkpt lat="43.25402" lon="6.5506">
        <ele>9</ele>
        <time>2019-07-27T10:58:27Z</time>
      </trkpt>
      <trkpt lat="43.2541" lon="6.55124">
        <ele>9</ele>
        <time>2019-07-27T10:58:36Z</time>
      </trkpt>
      <trkpt lat="43.25421" lon="6.55191">
        <ele>9</ele>
        <time>2019-07-27T10:58:45Z</time>
      </trkpt>
      <trkpt lat="43.2543" lon="6.55256">
        <ele>9</ele>
        <time>2019-07-27T10:58:57Z</time>
      </trkpt>
      <trkpt lat="43.25475" lon="6.55257">
        <ele>9</ele>
        <time>2019-07-27T10:59:13Z</time>
      </trkpt>
      <trkpt lat="43.25524" lon="6.55244">
        <ele>9</ele>
        <time>2019-07-27T10:59:25Z</time>
      </trkpt>
      <trkpt lat="43.25569" lon="6.55234">
        <ele>9</ele>
        <time>2019-07-27T10:59:36Z</time>
      </trkpt>
      <trkpt lat="43.25589" lon="6.55276">
        <ele>9</ele>
        <time>2019-07-27T10:59:50Z</time>
      </trkpt>
      <trkpt lat="43.25595" lon="6.55338">
        <ele>9</ele>
        <time>2019-07-27T11:00:03Z</time>
      </trkpt>
      <trkpt lat="43.25599" lon="6.55401">
        <ele>9</ele>
        <time>2019-07-27T11:00:15Z</time>
      </trkpt>
      <trkpt lat="43.25604" lon="6.55469">
        <ele>8</ele>
        <time>2019-07-27T11:00:27Z</time>
      </trkpt>
      <trkpt lat="43.25632" lon="6.5551">
        <ele>8</ele>
        <time>2019-07-27T11:00:41Z</time>
      </trkpt>
      <trkpt lat="43.2568" lon="6.55507">
        <ele>8</ele>
        <time>2019-07-27T11:00:54Z</time>
      </trkpt>
      <trkpt lat="43.25719" lon="6.55542">
        <ele>8</ele>
        <time>2019-07-27T11:01:05Z</time>
      </trkpt>
      <trkpt lat="43.25743" lon="6.55598">
        <ele>8</ele>
        <time>2019-07-27T11:01:18Z</time>
      </trkpt>
      <trkpt lat="43.25771" lon="6.55648">
        <ele>8</ele>
        <time>2019-07-27T11:01:29Z</time>
      </trkpt>
      <trkpt lat="43.25816" lon="6.55654">
        <ele>8</ele>
        <time>2019-07-27T11:01:41Z</time>
      </trkpt>
      <trkpt lat="43.25865" lon="6.55648">
        <ele>8</ele>
        <time>2019-07-27T11:01:52Z</time>
      </trkpt>
      <trkpt lat="43.25912" lon="6.55632">
        <ele>8</ele>
        <time>2019-07-27T11:02:17Z</time>
      </trkpt>
      <trkpt lat="43.25962" lon="6.55613">
        <ele>8</ele>
        <time>2019-07-27T11:02:31Z</time>
      </trkpt>
      <trkpt lat="43.26008" lon="6.55582">
        <ele>8</ele>
        <time>2019-07-27T11:02:44Z</time>
      </trkpt>
      <trkpt lat="43.26036" lon="6.55529">
        <ele>8</ele>
        <time>2019-07-27T11:02:56Z</time>
      </trkpt>
      <trkpt lat="43.26054" lon="6.55471">
        <ele>8</ele>
        <time>2019-07-27T11:03:06Z</time>
      </trkpt>
      <trkpt lat="43.26078" lon="6.55416">
        <ele>8</ele>
        <time>2019-07-27T11:03:18Z</time>
      </trkpt>
      <trkpt lat="43.26103" lon="6.55361">
        <ele>8</ele>
        <time>2019-07-27T11:03:28Z</time>
      </trkpt>
      <trkpt lat="43.26122" lon="6.55299">
        <ele>8</ele>
        <time>2019-07-27T11:03:42Z</time>
      </trkpt>
      <trkpt lat="43.26139" lon="6.55238">
        <ele>8</ele>
        <time>2019-07-27T11:03:52Z</time>
      </trkpt>
      <trkpt lat="43.26165" lon="6.55181">
        <ele>8</ele>
        <time>2019-07-27T11:04:03Z</time>
      </trkpt>
      <trkpt lat="43.26196" lon="6.55134">
        <ele>8</ele>
        <time>2019-07-27T11:04:15Z</time>
      </trkpt>
      <trkpt lat="43.26222" lon="6.55077">
        <ele>8</ele>
        <time>2019-07-27T11:04:27Z</time>
      </trkpt>
      <trkpt lat="43.26252" lon="6.55023">
        <ele>8.170325</ele>
        <time>2019-07-27T11:04:37Z</time>
      </trkpt>
      <trkpt lat="43.2629" lon="6.54987">
        <ele>9</ele>
        <time>2019-07-27T11:04:49Z</time>
      </trkpt>
      <trkpt lat="43.26322" lon="6.55003">
        <ele>9</ele>
        <time>2019-07-27T11:05:42Z</time>
      </trkpt>
      <trkpt lat="43.26355" lon="6.55032">
        <ele>9</ele>
        <time>2019-07-27T11:05:54Z</time>
      </trkpt>
      <trkpt lat="43.26402" lon="6.55033">
        <ele>9</ele>
        <time>2019-07-27T11:06:04Z</time>
      </trkpt>
      <trkpt lat="43.26449" lon="6.55032">
        <ele>9</ele>
        <time>2019-07-27T11:06:16Z</time>
      </trkpt>
      <trkpt lat="43.26496" lon="6.55037">
        <ele>9</ele>
        <time>2019-07-27T11:06:28Z</time>
      </trkpt>
      <trkpt lat="43.26536" lon="6.55076">
        <ele>9</ele>
        <time>2019-07-27T11:06:40Z</time>
      </trkpt>
      <trkpt lat="43.26581" lon="6.55091">
        <ele>9</ele>
        <time>2019-07-27T11:06:50Z</time>
      </trkpt>
      <trkpt lat="43.26621" lon="6.55058">
        <ele>9.344438</ele>
        <time>2019-07-27T11:07:02Z</time>
      </trkpt>
      <trkpt lat="43.26663" lon="6.55021">
        <ele>10.140285</ele>
        <time>2019-07-27T11:07:13Z</time>
      </trkpt>
      <trkpt lat="43.26706" lon="6.55033">
        <ele>10.32625</ele>
        <time>2019-07-27T11:07:22Z</time>
      </trkpt>
      <trkpt lat="43.26754" lon="6.55048">
        <ele>10.135</ele>
        <time>2019-07-27T11:07:33Z</time>
      </trkpt>
      <trkpt lat="43.26801" lon="6.55055">
        <ele>10.0875</ele>
        <time>2019-07-27T11:07:44Z</time>
      </trkpt>
      <trkpt lat="43.26846" lon="6.55057">
        <ele>10.10625</ele>
        <time>2019-07-27T11:07:55Z</time>
      </trkpt>
      <trkpt lat="43.26894" lon="6.5505">
        <ele>10.625759</ele>
        <time>2019-07-27T11:08:05Z</time>
      </trkpt>
      <trkpt lat="43.26939" lon="6.55042">
        <ele>11.213881</ele>
        <time>2019-07-27T11:08:17Z</time>
      </trkpt>
      <trkpt lat="43.26982" lon="6.5506">
        <ele>11.2125</ele>
        <time>2019-07-27T11:08:29Z</time>
      </trkpt>
      <trkpt lat="43.27011" lon="6.55107">
        <ele>10.547188</ele>
        <time>2019-07-27T11:08:40Z</time>
      </trkpt>
      <trkpt lat="43.2703" lon="6.55168">
        <ele>10.5925</ele>
        <time>2019-07-27T11:08:50Z</time>
      </trkpt>
      <trkpt lat="43.27044" lon="6.55228">
        <ele>10.546638</ele>
        <time>2019-07-27T11:09:00Z</time>
      </trkpt>
      <trkpt lat="43.27062" lon="6.55293">
        <ele>9.94375</ele>
        <time>2019-07-27T11:09:12Z</time>
      </trkpt>
      <trkpt lat="43.27081" lon="6.55358">
        <ele>9.89</ele>
        <time>2019-07-27T11:09:23Z</time>
      </trkpt>
      <trkpt lat="43.27098" lon="6.55422">
        <ele>9.48375</ele>
        <time>2019-07-27T11:09:34Z</time>
      </trkpt>
      <trkpt lat="43.27115" lon="6.55487">
        <ele>9</ele>
        <time>2019-07-27T11:09:44Z</time>
      </trkpt>
      <trkpt lat="43.27121" lon="6.55553">
        <ele>9</ele>
        <time>2019-07-27T11:09:53Z</time>
      </trkpt>
      <trkpt lat="43.27119" lon="6.55616">
        <ele>9</ele>
        <time>2019-07-27T11:10:03Z</time>
      </trkpt>
      <trkpt lat="43.27108" lon="6.55681">
        <ele>9</ele>
        <time>2019-07-27T11:10:12Z</time>
      </trkpt>
      <trkpt lat="43.27098" lon="6.55742">
        <ele>9</ele>
        <time>2019-07-27T11:10:20Z</time>
      </trkpt>
      <trkpt lat="43.27094" lon="6.55805">
        <ele>8.680187</ele>
        <time>2019-07-27T11:10:28Z</time>
      </trkpt>
      <trkpt lat="43.27089" lon="6.55868">
        <ele>8.119347</ele>
        <time>2019-07-27T11:10:36Z</time>
      </trkpt>
      <trkpt lat="43.27091" lon="6.55934">
        <ele>8</ele>
        <time>2019-07-27T11:10:44Z</time>
      </trkpt>
      <trkpt lat="43.27097" lon="6.56">
        <ele>8</ele>
        <time>2019-07-27T11:10:54Z</time>
      </trkpt>
      <trkpt lat="43.27102" lon="6.56065">
        <ele>8</ele>
        <time>2019-07-27T11:11:03Z</time>
      </trkpt>
      <trkpt lat="43.27102" lon="6.56132">
        <ele>7.9508</ele>
        <time>2019-07-27T11:11:11Z</time>
      </trkpt>
      <trkpt lat="43.27093" lon="6.56201">
        <ele>7</ele>
        <time>2019-07-27T11:11:19Z</time>
      </trkpt>
      <trkpt lat="43.27077" lon="6.56263">
        <ele>7</ele>
        <time>2019-07-27T11:11:28Z</time>
      </trkpt>
      <trkpt lat="43.27058" lon="6.5632">
        <ele>7</ele>
        <time>2019-07-27T11:11:36Z</time>
      </trkpt>
      <trkpt lat="43.27038" lon="6.56381">
        <ele>6.970891</ele>
        <time>2019-07-27T11:11:44Z</time>
      </trkpt>
      <trkpt lat="43.27016" lon="6.56441">
        <ele>6.340262</ele>
        <time>2019-07-27T11:11:52Z</time>
      </trkpt>
      <trkpt lat="43.26999" lon="6.565">
        <ele>6</ele>
        <time>2019-07-27T11:12:01Z</time>
      </trkpt>
      <trkpt lat="43.26985" lon="6.56564">
        <ele>6</ele>
        <time>2019-07-27T11:12:10Z</time>
      </trkpt>
      <trkpt lat="43.2698" lon="6.56627">
        <ele>6</ele>
        <time>2019-07-27T11:12:19Z</time>
      </trkpt>
      <trkpt lat="43.26986" lon="6.56691">
        <ele>6</ele>
        <time>2019-07-27T11:12:28Z</time>
      </trkpt>
      <trkpt lat="43.27003" lon="6.56752">
        <ele>5.76875</ele>
        <time>2019-07-27T11:12:37Z</time>
      </trkpt>
      <trkpt lat="43.27022" lon="6.56801">
        <ele>5</ele>
        <time>2019-07-27T11:13:25Z</time>
      </trkpt>
      <trkpt lat="43.2705" lon="6.56855">
        <ele>5.077894</ele>
        <time>2019-07-27T11:13:37Z</time>
      </trkpt>
      <trkpt lat="43.27077" lon="6.56905">
        <ele>5</ele>
        <time>2019-07-27T11:13:47Z</time>
      </trkpt>
      <trkpt lat="43.27108" lon="6.5696">
        <ele>5</ele>
        <time>2019-07-27T11:13:58Z</time>
      </trkpt>
      <trkpt lat="43.27138" lon="6.57011">
        <ele>5</ele>
        <time>2019-07-27T11:14:07Z</time>
      </trkpt>
      <trkpt lat="43.27168" lon="6.57062">
        <ele>5</ele>
        <time>2019-07-27T11:14:16Z</time>
      </trkpt>
      <trkpt lat="43.27197" lon="6.5711">
        <ele>5</ele>
        <time>2019-07-27T11:14:26Z</time>
      </trkpt>
      <trkpt lat="43.27225" lon="6.57157">
        <ele>5</ele>
        <time>2019-07-27T11:14:36Z</time>
      </trkpt>
      <trkpt lat="43.27256" lon="6.57207">
        <ele>4.405934</ele>
        <time>2019-07-27T11:14:46Z</time>
      </trkpt>
      <trkpt lat="43.27286" lon="6.57256">
        <ele>4</ele>
        <time>2019-07-27T11:14:57Z</time>
      </trkpt>
      <trkpt lat="43.27315" lon="6.57305">
        <ele>4</ele>
        <time>2019-07-27T11:15:07Z</time>
      </trkpt>
      <trkpt lat="43.27342" lon="6.5736">
        <ele>4</ele>
        <time>2019-07-27T11:15:17Z</time>
      </trkpt>
      <trkpt lat="43.27381" lon="6.5739">
        <ele>3.85</ele>
        <time>2019-07-27T11:15:30Z</time>
      </trkpt>
      <trkpt lat="43.27385" lon="6.57451">
        <ele>3</ele>
        <time>2019-07-27T11:15:48Z</time>
      </trkpt>
      <trkpt lat="43.27398" lon="6.57513">
        <ele>3</ele>
        <time>2019-07-27T11:15:58Z</time>
      </trkpt>
      <trkpt lat="43.27435" lon="6.5755">
        <ele>3.452256</ele>
        <time>2019-07-27T11:16:06Z</time>
      </trkpt>
      <trkpt lat="43.27447" lon="6.57489">
        <ele>3.289547</ele>
        <time>2019-07-27T11:16:17Z</time>
      </trkpt>
      <trkpt lat="43.27492" lon="6.57486">
        <ele>3.934891</ele>
        <time>2019-07-27T11:16:31Z</time>
      </trkpt>
      <trkpt lat="43.27538" lon="6.575">
        <ele>4.698438</ele>
        <time>2019-07-27T11:16:45Z</time>
      </trkpt>
      <trkpt lat="43.27581" lon="6.57522">
        <ele>5.039375</ele>
        <time>2019-07-27T11:16:56Z</time>
      </trkpt>
      <trkpt lat="43.27626" lon="6.57532">
        <ele>5.928388</ele>
        <time>2019-07-27T11:17:08Z</time>
      </trkpt>
      <trkpt lat="43.27673" lon="6.57549">
        <ele>6.364287</ele>
        <time>2019-07-27T11:17:20Z</time>
      </trkpt>
      <trkpt lat="43.27717" lon="6.57567">
        <ele>6.61</ele>
        <time>2019-07-27T11:17:32Z</time>
      </trkpt>
      <trkpt lat="43.27764" lon="6.57586">
        <ele>6.87875</ele>
        <time>2019-07-27T11:17:44Z</time>
      </trkpt>
      <trkpt lat="43.27809" lon="6.57605">
        <ele>7.161422</ele>
        <time>2019-07-27T11:17:55Z</time>
      </trkpt>
      <trkpt lat="43.27853" lon="6.57633">
        <ele>8</ele>
        <time>2019-07-27T11:18:04Z</time>
      </trkpt>
      <trkpt lat="43.2789" lon="6.5767">
        <ele>8.075281</ele>
        <time>2019-07-27T11:18:15Z</time>
      </trkpt>
      <trkpt lat="43.27919" lon="6.57723">
        <ele>8.963169</ele>
        <time>2019-07-27T11:18:25Z</time>
      </trkpt>
      <trkpt lat="43.27946" lon="6.57779">
        <ele>8.813859</ele>
        <time>2019-07-27T11:18:34Z</time>
      </trkpt>
      <trkpt lat="43.2797" lon="6.57838">
        <ele>8.053609</ele>
        <time>2019-07-27T11:18:45Z</time>
      </trkpt>
      <trkpt lat="43.27999" lon="6.5789">
        <ele>7.726344</ele>
        <time>2019-07-27T11:18:55Z</time>
      </trkpt>
      <trkpt lat="43.28026" lon="6.57945">
        <ele>7</ele>
        <time>2019-07-27T11:19:05Z</time>
      </trkpt>
      <trkpt lat="43.28052" lon="6.58003">
        <ele>6.70375</ele>
        <time>2019-07-27T11:19:17Z</time>
      </trkpt>
      <trkpt lat="43.28071" lon="6.58062">
        <ele>5.834272</ele>
        <time>2019-07-27T11:19:27Z</time>
      </trkpt>
      <trkpt lat="43.28086" lon="6.58123">
        <ele>5.519906</ele>
        <time>2019-07-27T11:19:38Z</time>
      </trkpt>
      <trkpt lat="43.281" lon="6.58186">
        <ele>5.025</ele>
        <time>2019-07-27T11:19:49Z</time>
      </trkpt>
      <trkpt lat="43.28118" lon="6.5825">
        <ele>5.475</ele>
        <time>2019-07-27T11:19:58Z</time>
      </trkpt>
      <trkpt lat="43.28132" lon="6.5831">
        <ele>5.687831</ele>
        <time>2019-07-27T11:20:10Z</time>
      </trkpt>
      <trkpt lat="43.28146" lon="6.5837">
        <ele>5.2125</ele>
        <time>2019-07-27T11:20:21Z</time>
      </trkpt>
      <trkpt lat="43.28162" lon="6.58434">
        <ele>5.62</ele>
        <time>2019-07-27T11:20:31Z</time>
      </trkpt>
      <trkpt lat="43.28177" lon="6.58498">
        <ele>5.8175</ele>
        <time>2019-07-27T11:20:45Z</time>
      </trkpt>
      <trkpt lat="43.282" lon="6.58563">
        <ele>5.565</ele>
        <time>2019-07-27T11:20:55Z</time>
      </trkpt>
      <trkpt lat="43.282" lon="6.58618">
        <ele>5.488194</ele>
        <time>2019-07-27T11:21:10Z</time>
      </trkpt>
      <trkpt lat="43.28182" lon="6.58685">
        <ele>3.3575</ele>
        <time>2019-07-27T11:22:21Z</time>
      </trkpt>
      <trkpt lat="43.28179" lon="6.58741">
        <ele>2.357812</ele>
        <time>2019-07-27T11:22:57Z</time>
      </trkpt>
      <trkpt lat="43.28181" lon="6.58737">
        <ele>2.557675</ele>
        <time>2019-07-27T11:25:50Z</time>
      </trkpt>
      <trkpt lat="43.28149" lon="6.58728">
        <ele>1.645</ele>
        <time>2019-07-27T14:00:51Z</time>
      </trkpt>
    </trkseg>
  </trk>
</gpx>